<?xml version="1.0" encoding="UTF-8" standalone="no" ?>
<gpx xmlns="http://www.topografix.com/GPX/1/1" xmlns:xsi="http://www.w3.org/2001/XMLSchema-instance" xsi:schemaLocation="http://www.topografix.com/GPX/1/1 http://www.topografix.com/GPX/1/1/gpx.xsd" version="1.1" creator="VisuGPX - https://www.visugpx.com">
  <metadata>
    <name>Trail des crêtes</name>
    <desc><![CDATA[Course Trail des crêtes à Metabief]]></desc>
  </metadata>
  <trk>
    <name><![CDATA[Trail des crêtes]]></name>
    <trkseg>
      <trkpt lat="46.76777" lon="6.35753">
        <ele>1013.8</ele>
        <time>2000-01-01T01:44:27.000Z</time>
      </trkpt>
      <trkpt lat="46.76761" lon="6.35759">
        <ele>1015.7</ele>
        <time>2000-01-01T01:44:37.000Z</time>
      </trkpt>
      <trkpt lat="46.76748" lon="6.35761">
        <ele>1017.4</ele>
        <time>2000-01-01T01:44:47.000Z</time>
      </trkpt>
      <trkpt lat="46.76731" lon="6.35758">
        <ele>1019.2</ele>
        <time>2000-01-01T01:44:57.000Z</time>
      </trkpt>
      <trkpt lat="46.76716" lon="6.35754">
        <ele>1020.5</ele>
        <time>2000-01-01T01:45:07.000Z</time>
      </trkpt>
      <trkpt lat="46.76698" lon="6.35741">
        <ele>1022.6</ele>
        <time>2000-01-01T01:45:17.000Z</time>
      </trkpt>
      <trkpt lat="46.76675" lon="6.35754">
        <ele>1024.8</ele>
        <time>2000-01-01T01:45:27.000Z</time>
      </trkpt>
      <trkpt lat="46.76657" lon="6.35753">
        <ele>1026.4</ele>
        <time>2000-01-01T01:45:37.000Z</time>
      </trkpt>
      <trkpt lat="46.76653" lon="6.35744">
        <ele>1027.2</ele>
        <time>2000-01-01T01:45:47.000Z</time>
      </trkpt>
      <trkpt lat="46.76625" lon="6.35751">
        <ele>1030.5</ele>
        <time>2000-01-01T01:45:57.000Z</time>
      </trkpt>
      <trkpt lat="46.76596" lon="6.35758">
        <ele>1038</ele>
        <time>2000-01-01T01:46:07.000Z</time>
      </trkpt>
      <trkpt lat="46.76575" lon="6.35735">
        <ele>1044.9</ele>
        <time>2000-01-01T01:46:17.000Z</time>
      </trkpt>
      <trkpt lat="46.76559" lon="6.35703">
        <ele>1051.4</ele>
        <time>2000-01-01T01:46:27.000Z</time>
      </trkpt>
      <trkpt lat="46.7655" lon="6.3565">
        <ele>1058.1</ele>
        <time>2000-01-01T01:46:37.000Z</time>
      </trkpt>
      <trkpt lat="46.7654" lon="6.35632">
        <ele>1059.9</ele>
        <time>2000-01-01T01:46:47.000Z</time>
      </trkpt>
      <trkpt lat="46.76518" lon="6.35616">
        <ele>1062.5</ele>
        <time>2000-01-01T01:46:57.000Z</time>
      </trkpt>
      <trkpt lat="46.765" lon="6.356">
        <ele>1063.9</ele>
        <time>2000-01-01T01:47:07.000Z</time>
      </trkpt>
      <trkpt lat="46.7648" lon="6.35577">
        <ele>1064.4</ele>
        <time>2000-01-01T01:47:17.000Z</time>
      </trkpt>
      <trkpt lat="46.76459" lon="6.35555">
        <ele>1065.5</ele>
        <time>2000-01-01T01:47:27.000Z</time>
      </trkpt>
      <trkpt lat="46.76443" lon="6.35526">
        <ele>1065.8</ele>
        <time>2000-01-01T01:47:37.000Z</time>
      </trkpt>
      <trkpt lat="46.76435" lon="6.35485">
        <ele>1061.6</ele>
        <time>2000-01-01T01:47:47.000Z</time>
      </trkpt>
      <trkpt lat="46.76425" lon="6.3545">
        <ele>1060.5</ele>
        <time>2000-01-01T01:47:57.000Z</time>
      </trkpt>
      <trkpt lat="46.76412" lon="6.35428">
        <ele>1062.6</ele>
        <time>2000-01-01T01:48:07.000Z</time>
      </trkpt>
      <trkpt lat="46.76389" lon="6.35402">
        <ele>1069.3</ele>
        <time>2000-01-01T01:48:17.000Z</time>
      </trkpt>
      <trkpt lat="46.76366" lon="6.3538">
        <ele>1075.8</ele>
        <time>2000-01-01T01:48:27.000Z</time>
      </trkpt>
      <trkpt lat="46.7635" lon="6.35363">
        <ele>1079.8</ele>
        <time>2000-01-01T01:48:37.000Z</time>
      </trkpt>
      <trkpt lat="46.76334" lon="6.35339">
        <ele>1082.5</ele>
        <time>2000-01-01T01:48:47.000Z</time>
      </trkpt>
      <trkpt lat="46.7633" lon="6.3531">
        <ele>1080.1</ele>
        <time>2000-01-01T01:48:57.000Z</time>
      </trkpt>
      <trkpt lat="46.76329" lon="6.35272">
        <ele>1077.8</ele>
        <time>2000-01-01T01:49:07.000Z</time>
      </trkpt>
      <trkpt lat="46.76323" lon="6.35232">
        <ele>1079.1</ele>
        <time>2000-01-01T01:49:17.000Z</time>
      </trkpt>
      <trkpt lat="46.76312" lon="6.3519">
        <ele>1079.4</ele>
        <time>2000-01-01T01:49:27.000Z</time>
      </trkpt>
      <trkpt lat="46.76305" lon="6.35159">
        <ele>1077.7</ele>
        <time>2000-01-01T01:49:37.000Z</time>
      </trkpt>
      <trkpt lat="46.76297" lon="6.35126">
        <ele>1076.3</ele>
        <time>2000-01-01T01:49:47.000Z</time>
      </trkpt>
      <trkpt lat="46.7629" lon="6.35095">
        <ele>1074.2</ele>
        <time>2000-01-01T01:49:57.000Z</time>
      </trkpt>
      <trkpt lat="46.76278" lon="6.35072">
        <ele>1071.8</ele>
        <time>2000-01-01T01:50:07.000Z</time>
      </trkpt>
      <trkpt lat="46.76276" lon="6.35048">
        <ele>1069.1</ele>
        <time>2000-01-01T01:50:17.000Z</time>
      </trkpt>
      <trkpt lat="46.76278" lon="6.35023">
        <ele>1067</ele>
        <time>2000-01-01T01:50:27.000Z</time>
      </trkpt>
      <trkpt lat="46.76277" lon="6.35005">
        <ele>1066.6</ele>
        <time>2000-01-01T01:50:37.000Z</time>
      </trkpt>
      <trkpt lat="46.76287" lon="6.34978">
        <ele>1065.3</ele>
        <time>2000-01-01T01:50:47.000Z</time>
      </trkpt>
      <trkpt lat="46.76274" lon="6.34979">
        <ele>1067.4</ele>
        <time>2000-01-01T01:50:57.000Z</time>
      </trkpt>
      <trkpt lat="46.76256" lon="6.34988">
        <ele>1069.6</ele>
        <time>2000-01-01T01:51:07.000Z</time>
      </trkpt>
      <trkpt lat="46.76234" lon="6.34992">
        <ele>1072.3</ele>
        <time>2000-01-01T01:51:17.000Z</time>
      </trkpt>
      <trkpt lat="46.7622" lon="6.34996">
        <ele>1073.9</ele>
        <time>2000-01-01T01:51:27.000Z</time>
      </trkpt>
      <trkpt lat="46.76209" lon="6.34986">
        <ele>1074.7</ele>
        <time>2000-01-01T01:51:37.000Z</time>
      </trkpt>
      <trkpt lat="46.76191" lon="6.34934">
        <ele>1075.4</ele>
        <time>2000-01-01T01:51:47.000Z</time>
      </trkpt>
      <trkpt lat="46.7618" lon="6.34903">
        <ele>1075</ele>
        <time>2000-01-01T01:51:57.000Z</time>
      </trkpt>
      <trkpt lat="46.76167" lon="6.34872">
        <ele>1073.4</ele>
        <time>2000-01-01T01:52:07.000Z</time>
      </trkpt>
      <trkpt lat="46.76156" lon="6.34838">
        <ele>1072.1</ele>
        <time>2000-01-01T01:52:17.000Z</time>
      </trkpt>
      <trkpt lat="46.76148" lon="6.34817">
        <ele>1073.1</ele>
        <time>2000-01-01T01:52:27.000Z</time>
      </trkpt>
      <trkpt lat="46.76137" lon="6.34794">
        <ele>1074.1</ele>
        <time>2000-01-01T01:52:37.000Z</time>
      </trkpt>
      <trkpt lat="46.76122" lon="6.34792">
        <ele>1074.5</ele>
        <time>2000-01-01T01:52:47.000Z</time>
      </trkpt>
      <trkpt lat="46.76097" lon="6.34777">
        <ele>1073.5</ele>
        <time>2000-01-01T01:52:57.000Z</time>
      </trkpt>
      <trkpt lat="46.76082" lon="6.34762">
        <ele>1072.4</ele>
        <time>2000-01-01T01:53:07.000Z</time>
      </trkpt>
      <trkpt lat="46.76073" lon="6.34746">
        <ele>1071.1</ele>
        <time>2000-01-01T01:53:17.000Z</time>
      </trkpt>
      <trkpt lat="46.76062" lon="6.3473">
        <ele>1071.4</ele>
        <time>2000-01-01T01:53:27.000Z</time>
      </trkpt>
      <trkpt lat="46.76049" lon="6.34707">
        <ele>1072.6</ele>
        <time>2000-01-01T01:53:37.000Z</time>
      </trkpt>
      <trkpt lat="46.76035" lon="6.34689">
        <ele>1074.2</ele>
        <time>2000-01-01T01:53:47.000Z</time>
      </trkpt>
      <trkpt lat="46.76023" lon="6.34673">
        <ele>1074.9</ele>
        <time>2000-01-01T01:53:57.000Z</time>
      </trkpt>
      <trkpt lat="46.76014" lon="6.34662">
        <ele>1075.3</ele>
        <time>2000-01-01T01:54:07.000Z</time>
      </trkpt>
      <trkpt lat="46.76016" lon="6.34649">
        <ele>1075.5</ele>
        <time>2000-01-01T01:54:17.000Z</time>
      </trkpt>
      <trkpt lat="46.76006" lon="6.34646">
        <ele>1075.5</ele>
        <time>2000-01-01T01:54:27.000Z</time>
      </trkpt>
      <trkpt lat="46.7599" lon="6.34651">
        <ele>1075.8</ele>
        <time>2000-01-01T01:54:37.000Z</time>
      </trkpt>
      <trkpt lat="46.75976" lon="6.34649">
        <ele>1075.7</ele>
        <time>2000-01-01T01:54:47.000Z</time>
      </trkpt>
      <trkpt lat="46.75941" lon="6.34627">
        <ele>1076.2</ele>
        <time>2000-01-01T01:54:57.000Z</time>
      </trkpt>
      <trkpt lat="46.75928" lon="6.34617">
        <ele>1076.8</ele>
        <time>2000-01-01T01:55:07.000Z</time>
      </trkpt>
      <trkpt lat="46.75917" lon="6.3461">
        <ele>1078.5</ele>
        <time>2000-01-01T01:55:17.000Z</time>
      </trkpt>
      <trkpt lat="46.75898" lon="6.34606">
        <ele>1082.1</ele>
        <time>2000-01-01T01:55:27.000Z</time>
      </trkpt>
      <trkpt lat="46.75883" lon="6.34604">
        <ele>1085</ele>
        <time>2000-01-01T01:55:37.000Z</time>
      </trkpt>
      <trkpt lat="46.7587" lon="6.34602">
        <ele>1087.4</ele>
        <time>2000-01-01T01:55:47.000Z</time>
      </trkpt>
      <trkpt lat="46.75863" lon="6.346">
        <ele>1088.5</ele>
        <time>2000-01-01T01:55:57.000Z</time>
      </trkpt>
      <trkpt lat="46.75856" lon="6.34595">
        <ele>1089.2</ele>
        <time>2000-01-01T01:56:07.000Z</time>
      </trkpt>
      <trkpt lat="46.75842" lon="6.3458">
        <ele>1089.2</ele>
        <time>2000-01-01T01:56:17.000Z</time>
      </trkpt>
      <trkpt lat="46.75826" lon="6.34557">
        <ele>1088.9</ele>
        <time>2000-01-01T01:56:27.000Z</time>
      </trkpt>
      <trkpt lat="46.75819" lon="6.34547">
        <ele>1089.5</ele>
        <time>2000-01-01T01:56:37.000Z</time>
      </trkpt>
      <trkpt lat="46.75807" lon="6.34538">
        <ele>1092</ele>
        <time>2000-01-01T01:56:47.000Z</time>
      </trkpt>
      <trkpt lat="46.75774" lon="6.34513">
        <ele>1098.5</ele>
        <time>2000-01-01T01:56:57.000Z</time>
      </trkpt>
      <trkpt lat="46.75753" lon="6.34501">
        <ele>1102.5</ele>
        <time>2000-01-01T01:57:07.000Z</time>
      </trkpt>
      <trkpt lat="46.75739" lon="6.34496">
        <ele>1105.8</ele>
        <time>2000-01-01T01:57:17.000Z</time>
      </trkpt>
      <trkpt lat="46.75732" lon="6.34489">
        <ele>1107.1</ele>
        <time>2000-01-01T01:57:27.000Z</time>
      </trkpt>
      <trkpt lat="46.75721" lon="6.34473">
        <ele>1108.3</ele>
        <time>2000-01-01T01:57:37.000Z</time>
      </trkpt>
      <trkpt lat="46.7571" lon="6.34456">
        <ele>1109.4</ele>
        <time>2000-01-01T01:57:47.000Z</time>
      </trkpt>
      <trkpt lat="46.75703" lon="6.34443">
        <ele>1110.3</ele>
        <time>2000-01-01T01:57:57.000Z</time>
      </trkpt>
      <trkpt lat="46.75685" lon="6.3442">
        <ele>1113.4</ele>
        <time>2000-01-01T01:58:07.000Z</time>
      </trkpt>
      <trkpt lat="46.75677" lon="6.34383">
        <ele>1113.7</ele>
        <time>2000-01-01T01:58:17.000Z</time>
      </trkpt>
      <trkpt lat="46.75667" lon="6.34345">
        <ele>1115.5</ele>
        <time>2000-01-01T01:58:27.000Z</time>
      </trkpt>
      <trkpt lat="46.75655" lon="6.34295">
        <ele>1117.8</ele>
        <time>2000-01-01T01:58:37.000Z</time>
      </trkpt>
      <trkpt lat="46.75644" lon="6.34246">
        <ele>1116.7</ele>
        <time>2000-01-01T01:58:47.000Z</time>
      </trkpt>
      <trkpt lat="46.75632" lon="6.3419">
        <ele>1114</ele>
        <time>2000-01-01T01:58:57.000Z</time>
      </trkpt>
      <trkpt lat="46.75627" lon="6.34154">
        <ele>1112.4</ele>
        <time>2000-01-01T01:59:07.000Z</time>
      </trkpt>
      <trkpt lat="46.75626" lon="6.34112">
        <ele>1107.4</ele>
        <time>2000-01-01T01:59:17.000Z</time>
      </trkpt>
      <trkpt lat="46.75624" lon="6.34071">
        <ele>1101.7</ele>
        <time>2000-01-01T01:59:27.000Z</time>
      </trkpt>
      <trkpt lat="46.75623" lon="6.34036">
        <ele>1097.7</ele>
        <time>2000-01-01T01:59:37.000Z</time>
      </trkpt>
      <trkpt lat="46.7562" lon="6.34008">
        <ele>1094.1</ele>
        <time>2000-01-01T01:59:47.000Z</time>
      </trkpt>
      <trkpt lat="46.75609" lon="6.33982">
        <ele>1092.1</ele>
        <time>2000-01-01T01:59:57.000Z</time>
      </trkpt>
      <trkpt lat="46.756" lon="6.33956">
        <ele>1088.3</ele>
        <time>2000-01-01T02:00:07.000Z</time>
      </trkpt>
      <trkpt lat="46.75589" lon="6.33944">
        <ele>1088</ele>
        <time>2000-01-01T02:00:17.000Z</time>
      </trkpt>
      <trkpt lat="46.75569" lon="6.3393">
        <ele>1089.5</ele>
        <time>2000-01-01T02:00:27.000Z</time>
      </trkpt>
      <trkpt lat="46.75539" lon="6.3391">
        <ele>1092</ele>
        <time>2000-01-01T02:00:37.000Z</time>
      </trkpt>
      <trkpt lat="46.75522" lon="6.33896">
        <ele>1092.4</ele>
        <time>2000-01-01T02:00:47.000Z</time>
      </trkpt>
      <trkpt lat="46.75508" lon="6.33882">
        <ele>1091.4</ele>
        <time>2000-01-01T02:00:57.000Z</time>
      </trkpt>
      <trkpt lat="46.755" lon="6.33871">
        <ele>1090.1</ele>
        <time>2000-01-01T02:01:07.000Z</time>
      </trkpt>
      <trkpt lat="46.7549" lon="6.33849">
        <ele>1086.2</ele>
        <time>2000-01-01T02:01:17.000Z</time>
      </trkpt>
      <trkpt lat="46.75483" lon="6.3383">
        <ele>1081.9</ele>
        <time>2000-01-01T02:01:27.000Z</time>
      </trkpt>
      <trkpt lat="46.75475" lon="6.33804">
        <ele>1077.1</ele>
        <time>2000-01-01T02:01:37.000Z</time>
      </trkpt>
      <trkpt lat="46.75471" lon="6.33783">
        <ele>1073.7</ele>
        <time>2000-01-01T02:01:47.000Z</time>
      </trkpt>
      <trkpt lat="46.75466" lon="6.33764">
        <ele>1071</ele>
        <time>2000-01-01T02:01:57.000Z</time>
      </trkpt>
      <trkpt lat="46.75452" lon="6.33738">
        <ele>1067.7</ele>
        <time>2000-01-01T02:02:07.000Z</time>
      </trkpt>
      <trkpt lat="46.75437" lon="6.33711">
        <ele>1065.7</ele>
        <time>2000-01-01T02:02:17.000Z</time>
      </trkpt>
      <trkpt lat="46.7542" lon="6.3368">
        <ele>1063.9</ele>
        <time>2000-01-01T02:02:27.000Z</time>
      </trkpt>
      <trkpt lat="46.75407" lon="6.33657">
        <ele>1062.3</ele>
        <time>2000-01-01T02:02:37.000Z</time>
      </trkpt>
      <trkpt lat="46.75396" lon="6.33635">
        <ele>1060.4</ele>
        <time>2000-01-01T02:02:47.000Z</time>
      </trkpt>
      <trkpt lat="46.75395" lon="6.33619">
        <ele>1058.2</ele>
        <time>2000-01-01T02:02:57.000Z</time>
      </trkpt>
      <trkpt lat="46.75395" lon="6.33602">
        <ele>1056.6</ele>
        <time>2000-01-01T02:03:07.000Z</time>
      </trkpt>
      <trkpt lat="46.75392" lon="6.33572">
        <ele>1054.8</ele>
        <time>2000-01-01T02:03:17.000Z</time>
      </trkpt>
      <trkpt lat="46.75391" lon="6.33536">
        <ele>1052.2</ele>
        <time>2000-01-01T02:03:27.000Z</time>
      </trkpt>
      <trkpt lat="46.75389" lon="6.33511">
        <ele>1050.1</ele>
        <time>2000-01-01T02:03:37.000Z</time>
      </trkpt>
      <trkpt lat="46.75366" lon="6.33527">
        <ele>1052.7</ele>
        <time>2000-01-01T02:03:47.000Z</time>
      </trkpt>
      <trkpt lat="46.75357" lon="6.3353">
        <ele>1054.3</ele>
        <time>2000-01-01T02:03:57.000Z</time>
      </trkpt>
      <trkpt lat="46.75335" lon="6.33525">
        <ele>1058.9</ele>
        <time>2000-01-01T02:04:07.000Z</time>
      </trkpt>
      <trkpt lat="46.75306" lon="6.33492">
        <ele>1063.1</ele>
        <time>2000-01-01T02:04:17.000Z</time>
      </trkpt>
      <trkpt lat="46.75299" lon="6.33478">
        <ele>1062.8</ele>
        <time>2000-01-01T02:04:27.000Z</time>
      </trkpt>
      <trkpt lat="46.7529" lon="6.33436">
        <ele>1060.4</ele>
        <time>2000-01-01T02:04:37.000Z</time>
      </trkpt>
      <trkpt lat="46.75278" lon="6.33442">
        <ele>1063.2</ele>
        <time>2000-01-01T02:04:47.000Z</time>
      </trkpt>
      <trkpt lat="46.75257" lon="6.33454">
        <ele>1067.5</ele>
        <time>2000-01-01T02:04:57.000Z</time>
      </trkpt>
      <trkpt lat="46.7524" lon="6.33465">
        <ele>1072.5</ele>
        <time>2000-01-01T02:05:07.000Z</time>
      </trkpt>
      <trkpt lat="46.75231" lon="6.33475">
        <ele>1075.9</ele>
        <time>2000-01-01T02:05:17.000Z</time>
      </trkpt>
      <trkpt lat="46.75221" lon="6.33465">
        <ele>1078.4</ele>
        <time>2000-01-01T02:05:27.000Z</time>
      </trkpt>
      <trkpt lat="46.75208" lon="6.33457">
        <ele>1081.5</ele>
        <time>2000-01-01T02:05:37.000Z</time>
      </trkpt>
      <trkpt lat="46.75192" lon="6.33453">
        <ele>1085.1</ele>
        <time>2000-01-01T02:05:47.000Z</time>
      </trkpt>
      <trkpt lat="46.75184" lon="6.3344">
        <ele>1084.4</ele>
        <time>2000-01-01T02:05:57.000Z</time>
      </trkpt>
      <trkpt lat="46.75178" lon="6.33432">
        <ele>1084.6</ele>
        <time>2000-01-01T02:06:07.000Z</time>
      </trkpt>
      <trkpt lat="46.75173" lon="6.33416">
        <ele>1083.2</ele>
        <time>2000-01-01T02:06:17.000Z</time>
      </trkpt>
      <trkpt lat="46.75157" lon="6.33405">
        <ele>1087</ele>
        <time>2000-01-01T02:06:27.000Z</time>
      </trkpt>
      <trkpt lat="46.75144" lon="6.33397">
        <ele>1091.2</ele>
        <time>2000-01-01T02:06:37.000Z</time>
      </trkpt>
      <trkpt lat="46.75134" lon="6.33395">
        <ele>1095</ele>
        <time>2000-01-01T02:06:47.000Z</time>
      </trkpt>
      <trkpt lat="46.7513" lon="6.33375">
        <ele>1094.5</ele>
        <time>2000-01-01T02:06:57.000Z</time>
      </trkpt>
      <trkpt lat="46.75123" lon="6.33347">
        <ele>1093.2</ele>
        <time>2000-01-01T02:07:07.000Z</time>
      </trkpt>
      <trkpt lat="46.7512" lon="6.33321">
        <ele>1090</ele>
        <time>2000-01-01T02:07:17.000Z</time>
      </trkpt>
      <trkpt lat="46.75122" lon="6.33292">
        <ele>1085.4</ele>
        <time>2000-01-01T02:07:27.000Z</time>
      </trkpt>
      <trkpt lat="46.75115" lon="6.33276">
        <ele>1083.2</ele>
        <time>2000-01-01T02:07:37.000Z</time>
      </trkpt>
      <trkpt lat="46.75109" lon="6.33262">
        <ele>1081.2</ele>
        <time>2000-01-01T02:07:47.000Z</time>
      </trkpt>
      <trkpt lat="46.75107" lon="6.33246">
        <ele>1078.4</ele>
        <time>2000-01-01T02:07:57.000Z</time>
      </trkpt>
      <trkpt lat="46.75107" lon="6.33228">
        <ele>1075.1</ele>
        <time>2000-01-01T02:08:07.000Z</time>
      </trkpt>
      <trkpt lat="46.75111" lon="6.33215">
        <ele>1072.5</ele>
        <time>2000-01-01T02:08:17.000Z</time>
      </trkpt>
      <trkpt lat="46.75115" lon="6.332">
        <ele>1069.8</ele>
        <time>2000-01-01T02:08:27.000Z</time>
      </trkpt>
      <trkpt lat="46.7512" lon="6.33183">
        <ele>1067.1</ele>
        <time>2000-01-01T02:08:37.000Z</time>
      </trkpt>
      <trkpt lat="46.75119" lon="6.33162">
        <ele>1064.9</ele>
        <time>2000-01-01T02:08:47.000Z</time>
      </trkpt>
      <trkpt lat="46.75097" lon="6.33145">
        <ele>1065.6</ele>
        <time>2000-01-01T02:08:57.000Z</time>
      </trkpt>
      <trkpt lat="46.75092" lon="6.33133">
        <ele>1065.5</ele>
        <time>2000-01-01T02:09:07.000Z</time>
      </trkpt>
      <trkpt lat="46.75059" lon="6.33115">
        <ele>1068.5</ele>
        <time>2000-01-01T02:09:17.000Z</time>
      </trkpt>
      <trkpt lat="46.75043" lon="6.33105">
        <ele>1070.4</ele>
        <time>2000-01-01T02:09:27.000Z</time>
      </trkpt>
      <trkpt lat="46.75032" lon="6.33104">
        <ele>1071.6</ele>
        <time>2000-01-01T02:09:37.000Z</time>
      </trkpt>
      <trkpt lat="46.74998" lon="6.33083">
        <ele>1075.4</ele>
        <time>2000-01-01T02:09:47.000Z</time>
      </trkpt>
      <trkpt lat="46.74971" lon="6.33064">
        <ele>1078.4</ele>
        <time>2000-01-01T02:09:57.000Z</time>
      </trkpt>
      <trkpt lat="46.74958" lon="6.33058">
        <ele>1079.2</ele>
        <time>2000-01-01T02:10:07.000Z</time>
      </trkpt>
      <trkpt lat="46.74943" lon="6.33048">
        <ele>1079.3</ele>
        <time>2000-01-01T02:10:17.000Z</time>
      </trkpt>
      <trkpt lat="46.74934" lon="6.33037">
        <ele>1079</ele>
        <time>2000-01-01T02:10:27.000Z</time>
      </trkpt>
      <trkpt lat="46.74921" lon="6.32988">
        <ele>1077.8</ele>
        <time>2000-01-01T02:10:37.000Z</time>
      </trkpt>
      <trkpt lat="46.74904" lon="6.32975">
        <ele>1078.8</ele>
        <time>2000-01-01T02:10:47.000Z</time>
      </trkpt>
      <trkpt lat="46.74899" lon="6.32957">
        <ele>1078.6</ele>
        <time>2000-01-01T02:10:57.000Z</time>
      </trkpt>
      <trkpt lat="46.74886" lon="6.32936">
        <ele>1079.1</ele>
        <time>2000-01-01T02:11:07.000Z</time>
      </trkpt>
      <trkpt lat="46.74875" lon="6.32923">
        <ele>1078.8</ele>
        <time>2000-01-01T02:11:17.000Z</time>
      </trkpt>
      <trkpt lat="46.74855" lon="6.32875">
        <ele>1073.2</ele>
        <time>2000-01-01T02:11:27.000Z</time>
      </trkpt>
      <trkpt lat="46.74842" lon="6.32866">
        <ele>1072.2</ele>
        <time>2000-01-01T02:11:37.000Z</time>
      </trkpt>
      <trkpt lat="46.74829" lon="6.32865">
        <ele>1072.9</ele>
        <time>2000-01-01T02:11:47.000Z</time>
      </trkpt>
      <trkpt lat="46.74829" lon="6.32853">
        <ele>1071.8</ele>
        <time>2000-01-01T02:11:57.000Z</time>
      </trkpt>
      <trkpt lat="46.74832" lon="6.32841">
        <ele>1070.4</ele>
        <time>2000-01-01T02:12:07.000Z</time>
      </trkpt>
      <trkpt lat="46.74833" lon="6.32816">
        <ele>1067.8</ele>
        <time>2000-01-01T02:12:17.000Z</time>
      </trkpt>
      <trkpt lat="46.74832" lon="6.32805">
        <ele>1066.8</ele>
        <time>2000-01-01T02:12:27.000Z</time>
      </trkpt>
      <trkpt lat="46.74823" lon="6.32787">
        <ele>1064.7</ele>
        <time>2000-01-01T02:12:37.000Z</time>
      </trkpt>
      <trkpt lat="46.74809" lon="6.32768">
        <ele>1062.3</ele>
        <time>2000-01-01T02:12:47.000Z</time>
      </trkpt>
      <trkpt lat="46.74803" lon="6.32756">
        <ele>1060.5</ele>
        <time>2000-01-01T02:12:57.000Z</time>
      </trkpt>
      <trkpt lat="46.7479" lon="6.32752">
        <ele>1059.4</ele>
        <time>2000-01-01T02:13:07.000Z</time>
      </trkpt>
      <trkpt lat="46.7477" lon="6.32753">
        <ele>1058.7</ele>
        <time>2000-01-01T02:13:17.000Z</time>
      </trkpt>
      <trkpt lat="46.74752" lon="6.3275">
        <ele>1057.9</ele>
        <time>2000-01-01T02:13:27.000Z</time>
      </trkpt>
      <trkpt lat="46.74741" lon="6.32749">
        <ele>1058.1</ele>
        <time>2000-01-01T02:13:37.000Z</time>
      </trkpt>
      <trkpt lat="46.74728" lon="6.32739">
        <ele>1055.7</ele>
        <time>2000-01-01T02:13:47.000Z</time>
      </trkpt>
      <trkpt lat="46.74715" lon="6.32741">
        <ele>1056.3</ele>
        <time>2000-01-01T02:13:57.000Z</time>
      </trkpt>
      <trkpt lat="46.74697" lon="6.32743">
        <ele>1055.6</ele>
        <time>2000-01-01T02:14:07.000Z</time>
      </trkpt>
      <trkpt lat="46.7467" lon="6.32755">
        <ele>1053.9</ele>
        <time>2000-01-01T02:14:17.000Z</time>
      </trkpt>
      <trkpt lat="46.7464" lon="6.32786">
        <ele>1054.9</ele>
        <time>2000-01-01T02:14:27.000Z</time>
      </trkpt>
      <trkpt lat="46.74612" lon="6.32838">
        <ele>1055.3</ele>
        <time>2000-01-01T02:14:37.000Z</time>
      </trkpt>
      <trkpt lat="46.74591" lon="6.32888">
        <ele>1057.5</ele>
        <time>2000-01-01T02:14:47.000Z</time>
      </trkpt>
      <trkpt lat="46.74583" lon="6.3292">
        <ele>1058.7</ele>
        <time>2000-01-01T02:14:57.000Z</time>
      </trkpt>
      <trkpt lat="46.74574" lon="6.32954">
        <ele>1059</ele>
        <time>2000-01-01T02:15:07.000Z</time>
      </trkpt>
      <trkpt lat="46.74566" lon="6.33002">
        <ele>1060.8</ele>
        <time>2000-01-01T02:15:17.000Z</time>
      </trkpt>
      <trkpt lat="46.74561" lon="6.3303">
        <ele>1063.4</ele>
        <time>2000-01-01T02:15:27.000Z</time>
      </trkpt>
      <trkpt lat="46.74551" lon="6.33055">
        <ele>1066.2</ele>
        <time>2000-01-01T02:15:37.000Z</time>
      </trkpt>
      <trkpt lat="46.74532" lon="6.33057">
        <ele>1069.3</ele>
        <time>2000-01-01T02:15:47.000Z</time>
      </trkpt>
      <trkpt lat="46.74516" lon="6.33054">
        <ele>1073.8</ele>
        <time>2000-01-01T02:15:57.000Z</time>
      </trkpt>
      <trkpt lat="46.74502" lon="6.3304">
        <ele>1079.1</ele>
        <time>2000-01-01T02:16:07.000Z</time>
      </trkpt>
      <trkpt lat="46.7449" lon="6.33017">
        <ele>1084.3</ele>
        <time>2000-01-01T02:16:17.000Z</time>
      </trkpt>
      <trkpt lat="46.74494" lon="6.32971">
        <ele>1081.7</ele>
        <time>2000-01-01T02:16:27.000Z</time>
      </trkpt>
      <trkpt lat="46.74498" lon="6.32935">
        <ele>1079</ele>
        <time>2000-01-01T02:16:37.000Z</time>
      </trkpt>
      <trkpt lat="46.74494" lon="6.32889">
        <ele>1081.1</ele>
        <time>2000-01-01T02:16:47.000Z</time>
      </trkpt>
      <trkpt lat="46.74504" lon="6.32831">
        <ele>1082.1</ele>
        <time>2000-01-01T02:16:57.000Z</time>
      </trkpt>
      <trkpt lat="46.74509" lon="6.32795">
        <ele>1082.5</ele>
        <time>2000-01-01T02:17:07.000Z</time>
      </trkpt>
      <trkpt lat="46.74516" lon="6.32752">
        <ele>1079.7</ele>
        <time>2000-01-01T02:17:17.000Z</time>
      </trkpt>
      <trkpt lat="46.74524" lon="6.32713">
        <ele>1075.2</ele>
        <time>2000-01-01T02:17:27.000Z</time>
      </trkpt>
      <trkpt lat="46.74526" lon="6.32687">
        <ele>1075</ele>
        <time>2000-01-01T02:17:37.000Z</time>
      </trkpt>
      <trkpt lat="46.74529" lon="6.3266">
        <ele>1074.8</ele>
        <time>2000-01-01T02:17:47.000Z</time>
      </trkpt>
      <trkpt lat="46.74533" lon="6.32644">
        <ele>1074</ele>
        <time>2000-01-01T02:17:57.000Z</time>
      </trkpt>
      <trkpt lat="46.74556" lon="6.32619">
        <ele>1068.9</ele>
        <time>2000-01-01T02:18:07.000Z</time>
      </trkpt>
      <trkpt lat="46.74588" lon="6.32585">
        <ele>1062.5</ele>
        <time>2000-01-01T02:18:17.000Z</time>
      </trkpt>
      <trkpt lat="46.746" lon="6.32551">
        <ele>1062.4</ele>
        <time>2000-01-01T02:18:27.000Z</time>
      </trkpt>
      <trkpt lat="46.74601" lon="6.32508">
        <ele>1067.2</ele>
        <time>2000-01-01T02:18:37.000Z</time>
      </trkpt>
      <trkpt lat="46.74595" lon="6.32453">
        <ele>1071.5</ele>
        <time>2000-01-01T02:18:47.000Z</time>
      </trkpt>
      <trkpt lat="46.74589" lon="6.32415">
        <ele>1072.6</ele>
        <time>2000-01-01T02:18:57.000Z</time>
      </trkpt>
      <trkpt lat="46.7458" lon="6.3238">
        <ele>1071.3</ele>
        <time>2000-01-01T02:19:07.000Z</time>
      </trkpt>
      <trkpt lat="46.74566" lon="6.32348">
        <ele>1070.6</ele>
        <time>2000-01-01T02:19:17.000Z</time>
      </trkpt>
      <trkpt lat="46.74552" lon="6.3232">
        <ele>1071.9</ele>
        <time>2000-01-01T02:19:27.000Z</time>
      </trkpt>
      <trkpt lat="46.74537" lon="6.32291">
        <ele>1073.9</ele>
        <time>2000-01-01T02:19:37.000Z</time>
      </trkpt>
      <trkpt lat="46.74532" lon="6.3225">
        <ele>1071.5</ele>
        <time>2000-01-01T02:19:47.000Z</time>
      </trkpt>
      <trkpt lat="46.74527" lon="6.32227">
        <ele>1069.7</ele>
        <time>2000-01-01T02:19:57.000Z</time>
      </trkpt>
      <trkpt lat="46.74523" lon="6.32205">
        <ele>1067.4</ele>
        <time>2000-01-01T02:20:07.000Z</time>
      </trkpt>
      <trkpt lat="46.74522" lon="6.32184">
        <ele>1065.3</ele>
        <time>2000-01-01T02:20:17.000Z</time>
      </trkpt>
      <trkpt lat="46.74519" lon="6.3216">
        <ele>1064.1</ele>
        <time>2000-01-01T02:20:27.000Z</time>
      </trkpt>
      <trkpt lat="46.74495" lon="6.32187">
        <ele>1071.2</ele>
        <time>2000-01-01T02:20:37.000Z</time>
      </trkpt>
      <trkpt lat="46.74462" lon="6.32224">
        <ele>1081.2</ele>
        <time>2000-01-01T02:20:47.000Z</time>
      </trkpt>
      <trkpt lat="46.74434" lon="6.32255">
        <ele>1088.4</ele>
        <time>2000-01-01T02:20:57.000Z</time>
      </trkpt>
      <trkpt lat="46.74411" lon="6.32286">
        <ele>1093.9</ele>
        <time>2000-01-01T02:21:07.000Z</time>
      </trkpt>
      <trkpt lat="46.74376" lon="6.32326">
        <ele>1099.4</ele>
        <time>2000-01-01T02:21:17.000Z</time>
      </trkpt>
      <trkpt lat="46.74349" lon="6.32354">
        <ele>1099.6</ele>
        <time>2000-01-01T02:21:27.000Z</time>
      </trkpt>
      <trkpt lat="46.74322" lon="6.32387">
        <ele>1103</ele>
        <time>2000-01-01T02:21:37.000Z</time>
      </trkpt>
      <trkpt lat="46.74304" lon="6.32405">
        <ele>1105.8</ele>
        <time>2000-01-01T02:21:47.000Z</time>
      </trkpt>
      <trkpt lat="46.74295" lon="6.32415">
        <ele>1107.1</ele>
        <time>2000-01-01T02:21:57.000Z</time>
      </trkpt>
      <trkpt lat="46.74279" lon="6.32389">
        <ele>1106.9</ele>
        <time>2000-01-01T02:22:07.000Z</time>
      </trkpt>
      <trkpt lat="46.74261" lon="6.32427">
        <ele>1111.2</ele>
        <time>2000-01-01T02:22:17.000Z</time>
      </trkpt>
      <trkpt lat="46.74245" lon="6.32434">
        <ele>1113.8</ele>
        <time>2000-01-01T02:22:27.000Z</time>
      </trkpt>
      <trkpt lat="46.74222" lon="6.32434">
        <ele>1117.1</ele>
        <time>2000-01-01T02:22:37.000Z</time>
      </trkpt>
      <trkpt lat="46.74205" lon="6.32432">
        <ele>1120.5</ele>
        <time>2000-01-01T02:22:47.000Z</time>
      </trkpt>
      <trkpt lat="46.74189" lon="6.32445">
        <ele>1125.2</ele>
        <time>2000-01-01T02:22:57.000Z</time>
      </trkpt>
      <trkpt lat="46.74171" lon="6.32445">
        <ele>1129.6</ele>
        <time>2000-01-01T02:23:07.000Z</time>
      </trkpt>
      <trkpt lat="46.7415" lon="6.32446">
        <ele>1135.7</ele>
        <time>2000-01-01T02:23:17.000Z</time>
      </trkpt>
      <trkpt lat="46.74136" lon="6.32446">
        <ele>1139.9</ele>
        <time>2000-01-01T02:23:27.000Z</time>
      </trkpt>
      <trkpt lat="46.7412" lon="6.32455">
        <ele>1144.9</ele>
        <time>2000-01-01T02:23:37.000Z</time>
      </trkpt>
      <trkpt lat="46.74097" lon="6.32463">
        <ele>1151.1</ele>
        <time>2000-01-01T02:23:47.000Z</time>
      </trkpt>
      <trkpt lat="46.74081" lon="6.3247">
        <ele>1154.1</ele>
        <time>2000-01-01T02:23:57.000Z</time>
      </trkpt>
      <trkpt lat="46.74063" lon="6.32474">
        <ele>1157.6</ele>
        <time>2000-01-01T02:24:07.000Z</time>
      </trkpt>
      <trkpt lat="46.74049" lon="6.32492">
        <ele>1160.6</ele>
        <time>2000-01-01T02:24:17.000Z</time>
      </trkpt>
      <trkpt lat="46.74029" lon="6.32501">
        <ele>1166.1</ele>
        <time>2000-01-01T02:24:27.000Z</time>
      </trkpt>
      <trkpt lat="46.74012" lon="6.32505">
        <ele>1170</ele>
        <time>2000-01-01T02:24:37.000Z</time>
      </trkpt>
      <trkpt lat="46.73994" lon="6.32501">
        <ele>1172.3</ele>
        <time>2000-01-01T02:24:47.000Z</time>
      </trkpt>
      <trkpt lat="46.73974" lon="6.32492">
        <ele>1173.6</ele>
        <time>2000-01-01T02:24:57.000Z</time>
      </trkpt>
      <trkpt lat="46.73955" lon="6.32494">
        <ele>1174.9</ele>
        <time>2000-01-01T02:25:07.000Z</time>
      </trkpt>
      <trkpt lat="46.73936" lon="6.32505">
        <ele>1176.4</ele>
        <time>2000-01-01T02:25:17.000Z</time>
      </trkpt>
      <trkpt lat="46.73923" lon="6.32524">
        <ele>1178</ele>
        <time>2000-01-01T02:25:27.000Z</time>
      </trkpt>
      <trkpt lat="46.73909" lon="6.32549">
        <ele>1179.4</ele>
        <time>2000-01-01T02:25:37.000Z</time>
      </trkpt>
      <trkpt lat="46.7389" lon="6.3257">
        <ele>1180.9</ele>
        <time>2000-01-01T02:25:47.000Z</time>
      </trkpt>
      <trkpt lat="46.73873" lon="6.3259">
        <ele>1182.2</ele>
        <time>2000-01-01T02:25:57.000Z</time>
      </trkpt>
      <trkpt lat="46.73858" lon="6.32612">
        <ele>1183.6</ele>
        <time>2000-01-01T02:26:07.000Z</time>
      </trkpt>
      <trkpt lat="46.73854" lon="6.32636">
        <ele>1185.4</ele>
        <time>2000-01-01T02:26:17.000Z</time>
      </trkpt>
      <trkpt lat="46.73858" lon="6.32668">
        <ele>1187.6</ele>
        <time>2000-01-01T02:26:27.000Z</time>
      </trkpt>
      <trkpt lat="46.73855" lon="6.32694">
        <ele>1190</ele>
        <time>2000-01-01T02:26:37.000Z</time>
      </trkpt>
      <trkpt lat="46.73851" lon="6.32716">
        <ele>1192.4</ele>
        <time>2000-01-01T02:26:47.000Z</time>
      </trkpt>
      <trkpt lat="46.73835" lon="6.32726">
        <ele>1193.6</ele>
        <time>2000-01-01T02:26:57.000Z</time>
      </trkpt>
      <trkpt lat="46.73812" lon="6.32747">
        <ele>1195.1</ele>
        <time>2000-01-01T02:27:07.000Z</time>
      </trkpt>
      <trkpt lat="46.73802" lon="6.32765">
        <ele>1195.8</ele>
        <time>2000-01-01T02:27:17.000Z</time>
      </trkpt>
      <trkpt lat="46.73786" lon="6.32788">
        <ele>1195.2</ele>
        <time>2000-01-01T02:27:27.000Z</time>
      </trkpt>
      <trkpt lat="46.73776" lon="6.3281">
        <ele>1194.7</ele>
        <time>2000-01-01T02:27:37.000Z</time>
      </trkpt>
      <trkpt lat="46.73769" lon="6.32838">
        <ele>1195.3</ele>
        <time>2000-01-01T02:27:47.000Z</time>
      </trkpt>
      <trkpt lat="46.73762" lon="6.32861">
        <ele>1196.3</ele>
        <time>2000-01-01T02:27:57.000Z</time>
      </trkpt>
      <trkpt lat="46.73761" lon="6.32881">
        <ele>1197.3</ele>
        <time>2000-01-01T02:28:07.000Z</time>
      </trkpt>
      <trkpt lat="46.73761" lon="6.32909">
        <ele>1199.2</ele>
        <time>2000-01-01T02:28:17.000Z</time>
      </trkpt>
      <trkpt lat="46.73752" lon="6.32924">
        <ele>1199.2</ele>
        <time>2000-01-01T02:28:27.000Z</time>
      </trkpt>
      <trkpt lat="46.73741" lon="6.32945">
        <ele>1200.5</ele>
        <time>2000-01-01T02:28:37.000Z</time>
      </trkpt>
      <trkpt lat="46.73739" lon="6.32977">
        <ele>1202.7</ele>
        <time>2000-01-01T02:28:47.000Z</time>
      </trkpt>
      <trkpt lat="46.7374" lon="6.3302">
        <ele>1205.2</ele>
        <time>2000-01-01T02:28:57.000Z</time>
      </trkpt>
      <trkpt lat="46.73745" lon="6.33058">
        <ele>1209.4</ele>
        <time>2000-01-01T02:29:07.000Z</time>
      </trkpt>
      <trkpt lat="46.73747" lon="6.33086">
        <ele>1213.4</ele>
        <time>2000-01-01T02:29:17.000Z</time>
      </trkpt>
      <trkpt lat="46.73748" lon="6.33111">
        <ele>1216.6</ele>
        <time>2000-01-01T02:29:27.000Z</time>
      </trkpt>
      <trkpt lat="46.7375" lon="6.33142">
        <ele>1220.5</ele>
        <time>2000-01-01T02:29:37.000Z</time>
      </trkpt>
      <trkpt lat="46.73759" lon="6.33162">
        <ele>1222.7</ele>
        <time>2000-01-01T02:29:47.000Z</time>
      </trkpt>
      <trkpt lat="46.73769" lon="6.33179">
        <ele>1224.7</ele>
        <time>2000-01-01T02:29:57.000Z</time>
      </trkpt>
      <trkpt lat="46.73775" lon="6.33196">
        <ele>1226.6</ele>
        <time>2000-01-01T02:30:07.000Z</time>
      </trkpt>
      <trkpt lat="46.73776" lon="6.33218">
        <ele>1228.8</ele>
        <time>2000-01-01T02:30:17.000Z</time>
      </trkpt>
      <trkpt lat="46.73774" lon="6.33239">
        <ele>1230.7</ele>
        <time>2000-01-01T02:30:27.000Z</time>
      </trkpt>
      <trkpt lat="46.73774" lon="6.33261">
        <ele>1232.9</ele>
        <time>2000-01-01T02:30:37.000Z</time>
      </trkpt>
      <trkpt lat="46.73777" lon="6.33275">
        <ele>1234.4</ele>
        <time>2000-01-01T02:30:47.000Z</time>
      </trkpt>
      <trkpt lat="46.73789" lon="6.33293">
        <ele>1236.8</ele>
        <time>2000-01-01T02:30:57.000Z</time>
      </trkpt>
      <trkpt lat="46.73797" lon="6.33309">
        <ele>1239.2</ele>
        <time>2000-01-01T02:31:07.000Z</time>
      </trkpt>
      <trkpt lat="46.73798" lon="6.33333">
        <ele>1241.4</ele>
        <time>2000-01-01T02:31:17.000Z</time>
      </trkpt>
      <trkpt lat="46.738" lon="6.33353">
        <ele>1243.3</ele>
        <time>2000-01-01T02:31:27.000Z</time>
      </trkpt>
      <trkpt lat="46.73797" lon="6.33376">
        <ele>1244.2</ele>
        <time>2000-01-01T02:31:37.000Z</time>
      </trkpt>
      <trkpt lat="46.73797" lon="6.33401">
        <ele>1245.4</ele>
        <time>2000-01-01T02:31:47.000Z</time>
      </trkpt>
      <trkpt lat="46.73803" lon="6.33416">
        <ele>1246.4</ele>
        <time>2000-01-01T02:31:57.000Z</time>
      </trkpt>
      <trkpt lat="46.73811" lon="6.33437">
        <ele>1247.4</ele>
        <time>2000-01-01T02:32:07.000Z</time>
      </trkpt>
      <trkpt lat="46.73812" lon="6.33456">
        <ele>1248.1</ele>
        <time>2000-01-01T02:32:17.000Z</time>
      </trkpt>
      <trkpt lat="46.73811" lon="6.33478">
        <ele>1249.1</ele>
        <time>2000-01-01T02:32:27.000Z</time>
      </trkpt>
      <trkpt lat="46.73814" lon="6.33511">
        <ele>1251.6</ele>
        <time>2000-01-01T02:32:37.000Z</time>
      </trkpt>
      <trkpt lat="46.73817" lon="6.3355">
        <ele>1254.7</ele>
        <time>2000-01-01T02:32:47.000Z</time>
      </trkpt>
      <trkpt lat="46.73824" lon="6.33576">
        <ele>1256.7</ele>
        <time>2000-01-01T02:32:57.000Z</time>
      </trkpt>
      <trkpt lat="46.7383" lon="6.33599">
        <ele>1257.4</ele>
        <time>2000-01-01T02:33:07.000Z</time>
      </trkpt>
      <trkpt lat="46.73832" lon="6.33628">
        <ele>1257.6</ele>
        <time>2000-01-01T02:33:17.000Z</time>
      </trkpt>
      <trkpt lat="46.73836" lon="6.33655">
        <ele>1258</ele>
        <time>2000-01-01T02:33:27.000Z</time>
      </trkpt>
      <trkpt lat="46.73838" lon="6.33671">
        <ele>1258.7</ele>
        <time>2000-01-01T02:33:37.000Z</time>
      </trkpt>
      <trkpt lat="46.73839" lon="6.33711">
        <ele>1261</ele>
        <time>2000-01-01T02:33:47.000Z</time>
      </trkpt>
      <trkpt lat="46.73831" lon="6.33734">
        <ele>1264.2</ele>
        <time>2000-01-01T02:33:57.000Z</time>
      </trkpt>
      <trkpt lat="46.73836" lon="6.33763">
        <ele>1265.5</ele>
        <time>2000-01-01T02:34:07.000Z</time>
      </trkpt>
      <trkpt lat="46.73836" lon="6.33792">
        <ele>1265.5</ele>
        <time>2000-01-01T02:34:17.000Z</time>
      </trkpt>
      <trkpt lat="46.73836" lon="6.33816">
        <ele>1264.7</ele>
        <time>2000-01-01T02:34:27.000Z</time>
      </trkpt>
      <trkpt lat="46.73835" lon="6.33833">
        <ele>1264.2</ele>
        <time>2000-01-01T02:34:37.000Z</time>
      </trkpt>
      <trkpt lat="46.73829" lon="6.33844">
        <ele>1265.1</ele>
        <time>2000-01-01T02:34:47.000Z</time>
      </trkpt>
      <trkpt lat="46.73822" lon="6.33859">
        <ele>1266</ele>
        <time>2000-01-01T02:34:57.000Z</time>
      </trkpt>
      <trkpt lat="46.73819" lon="6.3388">
        <ele>1267.3</ele>
        <time>2000-01-01T02:35:07.000Z</time>
      </trkpt>
      <trkpt lat="46.73821" lon="6.33905">
        <ele>1268.5</ele>
        <time>2000-01-01T02:35:17.000Z</time>
      </trkpt>
      <trkpt lat="46.73821" lon="6.33921">
        <ele>1269.6</ele>
        <time>2000-01-01T02:35:27.000Z</time>
      </trkpt>
      <trkpt lat="46.73819" lon="6.33946">
        <ele>1271.9</ele>
        <time>2000-01-01T02:35:37.000Z</time>
      </trkpt>
      <trkpt lat="46.73817" lon="6.33969">
        <ele>1274.2</ele>
        <time>2000-01-01T02:35:47.000Z</time>
      </trkpt>
      <trkpt lat="46.73819" lon="6.33982">
        <ele>1274.7</ele>
        <time>2000-01-01T02:35:57.000Z</time>
      </trkpt>
      <trkpt lat="46.73819" lon="6.33997">
        <ele>1275.6</ele>
        <time>2000-01-01T02:36:07.000Z</time>
      </trkpt>
      <trkpt lat="46.73815" lon="6.34012">
        <ele>1276.9</ele>
        <time>2000-01-01T02:36:17.000Z</time>
      </trkpt>
      <trkpt lat="46.73808" lon="6.34024">
        <ele>1278.3</ele>
        <time>2000-01-01T02:36:27.000Z</time>
      </trkpt>
      <trkpt lat="46.73799" lon="6.3404">
        <ele>1280.4</ele>
        <time>2000-01-01T02:36:37.000Z</time>
      </trkpt>
      <trkpt lat="46.73796" lon="6.34055">
        <ele>1281.7</ele>
        <time>2000-01-01T02:36:47.000Z</time>
      </trkpt>
      <trkpt lat="46.73785" lon="6.34072">
        <ele>1284.6</ele>
        <time>2000-01-01T02:36:57.000Z</time>
      </trkpt>
      <trkpt lat="46.73772" lon="6.34083">
        <ele>1287.7</ele>
        <time>2000-01-01T02:37:07.000Z</time>
      </trkpt>
      <trkpt lat="46.73767" lon="6.34095">
        <ele>1290.1</ele>
        <time>2000-01-01T02:37:17.000Z</time>
      </trkpt>
      <trkpt lat="46.73763" lon="6.34108">
        <ele>1292.6</ele>
        <time>2000-01-01T02:37:27.000Z</time>
      </trkpt>
      <trkpt lat="46.73758" lon="6.3412">
        <ele>1294.9</ele>
        <time>2000-01-01T02:37:37.000Z</time>
      </trkpt>
      <trkpt lat="46.73749" lon="6.34125">
        <ele>1297.1</ele>
        <time>2000-01-01T02:37:47.000Z</time>
      </trkpt>
      <trkpt lat="46.73743" lon="6.3413">
        <ele>1298.5</ele>
        <time>2000-01-01T02:37:57.000Z</time>
      </trkpt>
      <trkpt lat="46.73736" lon="6.34144">
        <ele>1300.8</ele>
        <time>2000-01-01T02:38:07.000Z</time>
      </trkpt>
      <trkpt lat="46.73722" lon="6.34158">
        <ele>1303.7</ele>
        <time>2000-01-01T02:38:17.000Z</time>
      </trkpt>
      <trkpt lat="46.73709" lon="6.34168">
        <ele>1305.8</ele>
        <time>2000-01-01T02:38:27.000Z</time>
      </trkpt>
      <trkpt lat="46.737" lon="6.34173">
        <ele>1307</ele>
        <time>2000-01-01T02:38:37.000Z</time>
      </trkpt>
      <trkpt lat="46.73698" lon="6.34193">
        <ele>1307.1</ele>
        <time>2000-01-01T02:38:47.000Z</time>
      </trkpt>
      <trkpt lat="46.73698" lon="6.34212">
        <ele>1307.1</ele>
        <time>2000-01-01T02:38:57.000Z</time>
      </trkpt>
      <trkpt lat="46.73698" lon="6.34221">
        <ele>1307.8</ele>
        <time>2000-01-01T02:39:07.000Z</time>
      </trkpt>
      <trkpt lat="46.73694" lon="6.34238">
        <ele>1309.8</ele>
        <time>2000-01-01T02:39:17.000Z</time>
      </trkpt>
      <trkpt lat="46.73691" lon="6.34253">
        <ele>1311.9</ele>
        <time>2000-01-01T02:39:27.000Z</time>
      </trkpt>
      <trkpt lat="46.73692" lon="6.34264">
        <ele>1312.9</ele>
        <time>2000-01-01T02:39:37.000Z</time>
      </trkpt>
      <trkpt lat="46.73693" lon="6.34276">
        <ele>1313.9</ele>
        <time>2000-01-01T02:39:47.000Z</time>
      </trkpt>
      <trkpt lat="46.7369" lon="6.3429">
        <ele>1314.8</ele>
        <time>2000-01-01T02:39:57.000Z</time>
      </trkpt>
      <trkpt lat="46.73689" lon="6.34302">
        <ele>1315.3</ele>
        <time>2000-01-01T02:40:07.000Z</time>
      </trkpt>
      <trkpt lat="46.7369" lon="6.34318">
        <ele>1315.3</ele>
        <time>2000-01-01T02:40:17.000Z</time>
      </trkpt>
      <trkpt lat="46.7369" lon="6.3433">
        <ele>1315.3</ele>
        <time>2000-01-01T02:40:27.000Z</time>
      </trkpt>
      <trkpt lat="46.7369" lon="6.34339">
        <ele>1315.3</ele>
        <time>2000-01-01T02:40:37.000Z</time>
      </trkpt>
      <trkpt lat="46.73686" lon="6.34346">
        <ele>1315.7</ele>
        <time>2000-01-01T02:40:47.000Z</time>
      </trkpt>
      <trkpt lat="46.73681" lon="6.34357">
        <ele>1316.1</ele>
        <time>2000-01-01T02:40:57.000Z</time>
      </trkpt>
      <trkpt lat="46.73671" lon="6.34364">
        <ele>1316.8</ele>
        <time>2000-01-01T02:41:07.000Z</time>
      </trkpt>
      <trkpt lat="46.7366" lon="6.34372">
        <ele>1317.5</ele>
        <time>2000-01-01T02:41:17.000Z</time>
      </trkpt>
      <trkpt lat="46.73653" lon="6.3438">
        <ele>1318</ele>
        <time>2000-01-01T02:41:27.000Z</time>
      </trkpt>
      <trkpt lat="46.73645" lon="6.34388">
        <ele>1318.6</ele>
        <time>2000-01-01T02:41:37.000Z</time>
      </trkpt>
      <trkpt lat="46.73636" lon="6.34394">
        <ele>1319.3</ele>
        <time>2000-01-01T02:41:47.000Z</time>
      </trkpt>
      <trkpt lat="46.73623" lon="6.34399">
        <ele>1320.1</ele>
        <time>2000-01-01T02:41:57.000Z</time>
      </trkpt>
      <trkpt lat="46.73616" lon="6.34403">
        <ele>1320.6</ele>
        <time>2000-01-01T02:42:07.000Z</time>
      </trkpt>
      <trkpt lat="46.73604" lon="6.3441">
        <ele>1321.6</ele>
        <time>2000-01-01T02:42:17.000Z</time>
      </trkpt>
      <trkpt lat="46.73594" lon="6.34418">
        <ele>1322.5</ele>
        <time>2000-01-01T02:42:27.000Z</time>
      </trkpt>
      <trkpt lat="46.73587" lon="6.34427">
        <ele>1323.3</ele>
        <time>2000-01-01T02:42:37.000Z</time>
      </trkpt>
      <trkpt lat="46.7358" lon="6.34442">
        <ele>1324.2</ele>
        <time>2000-01-01T02:42:47.000Z</time>
      </trkpt>
      <trkpt lat="46.73572" lon="6.34458">
        <ele>1325.6</ele>
        <time>2000-01-01T02:42:57.000Z</time>
      </trkpt>
      <trkpt lat="46.73566" lon="6.34473">
        <ele>1327.3</ele>
        <time>2000-01-01T02:43:07.000Z</time>
      </trkpt>
      <trkpt lat="46.73562" lon="6.34485">
        <ele>1329</ele>
        <time>2000-01-01T02:43:17.000Z</time>
      </trkpt>
      <trkpt lat="46.73555" lon="6.34499">
        <ele>1331.4</ele>
        <time>2000-01-01T02:43:27.000Z</time>
      </trkpt>
      <trkpt lat="46.73549" lon="6.3451">
        <ele>1333.1</ele>
        <time>2000-01-01T02:43:37.000Z</time>
      </trkpt>
      <trkpt lat="46.73542" lon="6.34521">
        <ele>1334.9</ele>
        <time>2000-01-01T02:43:47.000Z</time>
      </trkpt>
      <trkpt lat="46.73538" lon="6.34527">
        <ele>1336</ele>
        <time>2000-01-01T02:43:57.000Z</time>
      </trkpt>
      <trkpt lat="46.73531" lon="6.34537">
        <ele>1337.4</ele>
        <time>2000-01-01T02:44:07.000Z</time>
      </trkpt>
      <trkpt lat="46.73525" lon="6.3455">
        <ele>1338.9</ele>
        <time>2000-01-01T02:44:17.000Z</time>
      </trkpt>
      <trkpt lat="46.73522" lon="6.34559">
        <ele>1339.8</ele>
        <time>2000-01-01T02:44:27.000Z</time>
      </trkpt>
      <trkpt lat="46.73517" lon="6.34568">
        <ele>1341</ele>
        <time>2000-01-01T02:44:37.000Z</time>
      </trkpt>
      <trkpt lat="46.73512" lon="6.34577">
        <ele>1342.1</ele>
        <time>2000-01-01T02:44:47.000Z</time>
      </trkpt>
      <trkpt lat="46.73505" lon="6.34586">
        <ele>1342.7</ele>
        <time>2000-01-01T02:44:57.000Z</time>
      </trkpt>
      <trkpt lat="46.73497" lon="6.34593">
        <ele>1343.1</ele>
        <time>2000-01-01T02:45:07.000Z</time>
      </trkpt>
      <trkpt lat="46.73491" lon="6.34603">
        <ele>1343.5</ele>
        <time>2000-01-01T02:45:17.000Z</time>
      </trkpt>
      <trkpt lat="46.73489" lon="6.34614">
        <ele>1344.1</ele>
        <time>2000-01-01T02:45:27.000Z</time>
      </trkpt>
      <trkpt lat="46.73489" lon="6.34622">
        <ele>1344.6</ele>
        <time>2000-01-01T02:45:37.000Z</time>
      </trkpt>
      <trkpt lat="46.73494" lon="6.34629">
        <ele>1345.2</ele>
        <time>2000-01-01T02:45:47.000Z</time>
      </trkpt>
      <trkpt lat="46.735" lon="6.3464">
        <ele>1346.3</ele>
        <time>2000-01-01T02:45:57.000Z</time>
      </trkpt>
      <trkpt lat="46.73506" lon="6.34651">
        <ele>1347.4</ele>
        <time>2000-01-01T02:46:07.000Z</time>
      </trkpt>
      <trkpt lat="46.73511" lon="6.34665">
        <ele>1348.3</ele>
        <time>2000-01-01T02:46:17.000Z</time>
      </trkpt>
      <trkpt lat="46.73515" lon="6.34679">
        <ele>1349.1</ele>
        <time>2000-01-01T02:46:27.000Z</time>
      </trkpt>
      <trkpt lat="46.7352" lon="6.34694">
        <ele>1349.8</ele>
        <time>2000-01-01T02:46:37.000Z</time>
      </trkpt>
      <trkpt lat="46.73522" lon="6.34704">
        <ele>1350.3</ele>
        <time>2000-01-01T02:46:47.000Z</time>
      </trkpt>
      <trkpt lat="46.73527" lon="6.34716">
        <ele>1350.8</ele>
        <time>2000-01-01T02:46:57.000Z</time>
      </trkpt>
      <trkpt lat="46.7353" lon="6.34726">
        <ele>1351.7</ele>
        <time>2000-01-01T02:47:07.000Z</time>
      </trkpt>
      <trkpt lat="46.73533" lon="6.34734">
        <ele>1352.5</ele>
        <time>2000-01-01T02:47:17.000Z</time>
      </trkpt>
      <trkpt lat="46.73533" lon="6.34742">
        <ele>1353.3</ele>
        <time>2000-01-01T02:47:27.000Z</time>
      </trkpt>
      <trkpt lat="46.73533" lon="6.34749">
        <ele>1354.2</ele>
        <time>2000-01-01T02:47:37.000Z</time>
      </trkpt>
      <trkpt lat="46.73528" lon="6.34756">
        <ele>1355.5</ele>
        <time>2000-01-01T02:47:47.000Z</time>
      </trkpt>
      <trkpt lat="46.73518" lon="6.34763">
        <ele>1357.1</ele>
        <time>2000-01-01T02:47:57.000Z</time>
      </trkpt>
      <trkpt lat="46.7351" lon="6.34766">
        <ele>1358</ele>
        <time>2000-01-01T02:48:07.000Z</time>
      </trkpt>
      <trkpt lat="46.73499" lon="6.34768">
        <ele>1359.2</ele>
        <time>2000-01-01T02:48:17.000Z</time>
      </trkpt>
      <trkpt lat="46.7349" lon="6.34769">
        <ele>1360.1</ele>
        <time>2000-01-01T02:48:27.000Z</time>
      </trkpt>
      <trkpt lat="46.7348" lon="6.34774">
        <ele>1361.2</ele>
        <time>2000-01-01T02:48:37.000Z</time>
      </trkpt>
      <trkpt lat="46.73472" lon="6.34779">
        <ele>1362.1</ele>
        <time>2000-01-01T02:48:47.000Z</time>
      </trkpt>
      <trkpt lat="46.73463" lon="6.3478">
        <ele>1362.4</ele>
        <time>2000-01-01T02:48:57.000Z</time>
      </trkpt>
      <trkpt lat="46.73451" lon="6.34785">
        <ele>1362.9</ele>
        <time>2000-01-01T02:49:07.000Z</time>
      </trkpt>
      <trkpt lat="46.73442" lon="6.34789">
        <ele>1363.2</ele>
        <time>2000-01-01T02:49:17.000Z</time>
      </trkpt>
      <trkpt lat="46.73432" lon="6.34794">
        <ele>1363.3</ele>
        <time>2000-01-01T02:49:27.000Z</time>
      </trkpt>
      <trkpt lat="46.73423" lon="6.34801">
        <ele>1363.7</ele>
        <time>2000-01-01T02:49:37.000Z</time>
      </trkpt>
      <trkpt lat="46.73415" lon="6.34806">
        <ele>1364</ele>
        <time>2000-01-01T02:49:47.000Z</time>
      </trkpt>
      <trkpt lat="46.73407" lon="6.34815">
        <ele>1365</ele>
        <time>2000-01-01T02:49:57.000Z</time>
      </trkpt>
      <trkpt lat="46.73402" lon="6.34823">
        <ele>1365.9</ele>
        <time>2000-01-01T02:50:07.000Z</time>
      </trkpt>
      <trkpt lat="46.73398" lon="6.34827">
        <ele>1366.4</ele>
        <time>2000-01-01T02:50:17.000Z</time>
      </trkpt>
      <trkpt lat="46.7339" lon="6.34829">
        <ele>1366.4</ele>
        <time>2000-01-01T02:50:27.000Z</time>
      </trkpt>
      <trkpt lat="46.73386" lon="6.34847">
        <ele>1368.8</ele>
        <time>2000-01-01T02:50:37.000Z</time>
      </trkpt>
      <trkpt lat="46.73385" lon="6.34862">
        <ele>1371.1</ele>
        <time>2000-01-01T02:50:47.000Z</time>
      </trkpt>
      <trkpt lat="46.73385" lon="6.34873">
        <ele>1372.7</ele>
        <time>2000-01-01T02:50:57.000Z</time>
      </trkpt>
      <trkpt lat="46.73385" lon="6.34882">
        <ele>1373.6</ele>
        <time>2000-01-01T02:51:07.000Z</time>
      </trkpt>
      <trkpt lat="46.73388" lon="6.3489">
        <ele>1374.4</ele>
        <time>2000-01-01T02:51:17.000Z</time>
      </trkpt>
      <trkpt lat="46.73388" lon="6.34904">
        <ele>1375.9</ele>
        <time>2000-01-01T02:51:27.000Z</time>
      </trkpt>
      <trkpt lat="46.73387" lon="6.34918">
        <ele>1377.3</ele>
        <time>2000-01-01T02:51:37.000Z</time>
      </trkpt>
      <trkpt lat="46.73384" lon="6.34929">
        <ele>1378.3</ele>
        <time>2000-01-01T02:51:47.000Z</time>
      </trkpt>
      <trkpt lat="46.73378" lon="6.34941">
        <ele>1379.5</ele>
        <time>2000-01-01T02:51:57.000Z</time>
      </trkpt>
      <trkpt lat="46.73372" lon="6.34951">
        <ele>1380.8</ele>
        <time>2000-01-01T02:52:07.000Z</time>
      </trkpt>
      <trkpt lat="46.73367" lon="6.34961">
        <ele>1382.1</ele>
        <time>2000-01-01T02:52:17.000Z</time>
      </trkpt>
      <trkpt lat="46.73363" lon="6.34967">
        <ele>1382.9</ele>
        <time>2000-01-01T02:52:27.000Z</time>
      </trkpt>
      <trkpt lat="46.73353" lon="6.3497">
        <ele>1383.6</ele>
        <time>2000-01-01T02:52:37.000Z</time>
      </trkpt>
      <trkpt lat="46.73343" lon="6.34974">
        <ele>1384.3</ele>
        <time>2000-01-01T02:52:47.000Z</time>
      </trkpt>
      <trkpt lat="46.73335" lon="6.34977">
        <ele>1384.7</ele>
        <time>2000-01-01T02:52:57.000Z</time>
      </trkpt>
      <trkpt lat="46.73326" lon="6.3498">
        <ele>1384.8</ele>
        <time>2000-01-01T02:53:07.000Z</time>
      </trkpt>
      <trkpt lat="46.73317" lon="6.34982">
        <ele>1384.8</ele>
        <time>2000-01-01T02:53:17.000Z</time>
      </trkpt>
      <trkpt lat="46.7331" lon="6.34984">
        <ele>1384.3</ele>
        <time>2000-01-01T02:53:27.000Z</time>
      </trkpt>
      <trkpt lat="46.73319" lon="6.35016">
        <ele>1386.6</ele>
        <time>2000-01-01T02:53:37.000Z</time>
      </trkpt>
      <trkpt lat="46.73325" lon="6.35037">
        <ele>1387.8</ele>
        <time>2000-01-01T02:53:47.000Z</time>
      </trkpt>
      <trkpt lat="46.73337" lon="6.35071">
        <ele>1390.5</ele>
        <time>2000-01-01T02:53:57.000Z</time>
      </trkpt>
      <trkpt lat="46.73347" lon="6.35104">
        <ele>1394</ele>
        <time>2000-01-01T02:54:07.000Z</time>
      </trkpt>
      <trkpt lat="46.73356" lon="6.35127">
        <ele>1396.3</ele>
        <time>2000-01-01T02:54:17.000Z</time>
      </trkpt>
      <trkpt lat="46.73368" lon="6.35153">
        <ele>1399.5</ele>
        <time>2000-01-01T02:54:27.000Z</time>
      </trkpt>
      <trkpt lat="46.73378" lon="6.35174">
        <ele>1402</ele>
        <time>2000-01-01T02:54:37.000Z</time>
      </trkpt>
      <trkpt lat="46.73389" lon="6.35196">
        <ele>1404.6</ele>
        <time>2000-01-01T02:54:47.000Z</time>
      </trkpt>
      <trkpt lat="46.73399" lon="6.35211">
        <ele>1406.1</ele>
        <time>2000-01-01T02:54:57.000Z</time>
      </trkpt>
      <trkpt lat="46.73407" lon="6.35223">
        <ele>1407.2</ele>
        <time>2000-01-01T02:55:07.000Z</time>
      </trkpt>
      <trkpt lat="46.73412" lon="6.35234">
        <ele>1408.2</ele>
        <time>2000-01-01T02:55:17.000Z</time>
      </trkpt>
      <trkpt lat="46.73416" lon="6.35243">
        <ele>1409</ele>
        <time>2000-01-01T02:55:27.000Z</time>
      </trkpt>
      <trkpt lat="46.73417" lon="6.35258">
        <ele>1410.4</ele>
        <time>2000-01-01T02:55:37.000Z</time>
      </trkpt>
      <trkpt lat="46.73418" lon="6.35266">
        <ele>1411.2</ele>
        <time>2000-01-01T02:55:47.000Z</time>
      </trkpt>
      <trkpt lat="46.73418" lon="6.35272">
        <ele>1411.8</ele>
        <time>2000-01-01T02:55:57.000Z</time>
      </trkpt>
      <trkpt lat="46.73431" lon="6.35281">
        <ele>1412.5</ele>
        <time>2000-01-01T02:56:07.000Z</time>
      </trkpt>
      <trkpt lat="46.73468" lon="6.35296">
        <ele>1412.8</ele>
        <time>2000-01-01T02:56:17.000Z</time>
      </trkpt>
      <trkpt lat="46.73508" lon="6.35313">
        <ele>1415</ele>
        <time>2000-01-01T02:56:27.000Z</time>
      </trkpt>
      <trkpt lat="46.73547" lon="6.35329">
        <ele>1416.6</ele>
        <time>2000-01-01T02:56:37.000Z</time>
      </trkpt>
      <trkpt lat="46.7358" lon="6.35347">
        <ele>1418.5</ele>
        <time>2000-01-01T02:56:47.000Z</time>
      </trkpt>
      <trkpt lat="46.73594" lon="6.35355">
        <ele>1419.8</ele>
        <time>2000-01-01T02:56:57.000Z</time>
      </trkpt>
      <trkpt lat="46.73601" lon="6.35358">
        <ele>1419.9</ele>
        <time>2000-01-01T02:57:07.000Z</time>
      </trkpt>
      <trkpt lat="46.73607" lon="6.35366">
        <ele>1420.4</ele>
        <time>2000-01-01T02:57:17.000Z</time>
      </trkpt>
      <trkpt lat="46.73617" lon="6.35375">
        <ele>1420.7</ele>
        <time>2000-01-01T02:57:27.000Z</time>
      </trkpt>
      <trkpt lat="46.73629" lon="6.35382">
        <ele>1419.9</ele>
        <time>2000-01-01T02:57:37.000Z</time>
      </trkpt>
      <trkpt lat="46.7364" lon="6.3539">
        <ele>1419.4</ele>
        <time>2000-01-01T02:57:47.000Z</time>
      </trkpt>
      <trkpt lat="46.73648" lon="6.35393">
        <ele>1419.3</ele>
        <time>2000-01-01T02:57:57.000Z</time>
      </trkpt>
      <trkpt lat="46.73661" lon="6.35393">
        <ele>1418.9</ele>
        <time>2000-01-01T02:58:07.000Z</time>
      </trkpt>
      <trkpt lat="46.73672" lon="6.35396">
        <ele>1419</ele>
        <time>2000-01-01T02:58:17.000Z</time>
      </trkpt>
      <trkpt lat="46.73682" lon="6.35399">
        <ele>1419.2</ele>
        <time>2000-01-01T02:58:27.000Z</time>
      </trkpt>
      <trkpt lat="46.73693" lon="6.35409">
        <ele>1420.2</ele>
        <time>2000-01-01T02:58:37.000Z</time>
      </trkpt>
      <trkpt lat="46.73702" lon="6.35422">
        <ele>1421.8</ele>
        <time>2000-01-01T02:58:47.000Z</time>
      </trkpt>
      <trkpt lat="46.73711" lon="6.35433">
        <ele>1423.2</ele>
        <time>2000-01-01T02:58:57.000Z</time>
      </trkpt>
      <trkpt lat="46.73721" lon="6.35441">
        <ele>1423.8</ele>
        <time>2000-01-01T02:59:07.000Z</time>
      </trkpt>
      <trkpt lat="46.73732" lon="6.35448">
        <ele>1423.9</ele>
        <time>2000-01-01T02:59:17.000Z</time>
      </trkpt>
      <trkpt lat="46.73743" lon="6.35451">
        <ele>1423.7</ele>
        <time>2000-01-01T02:59:27.000Z</time>
      </trkpt>
      <trkpt lat="46.73756" lon="6.35452">
        <ele>1423.4</ele>
        <time>2000-01-01T02:59:37.000Z</time>
      </trkpt>
      <trkpt lat="46.73765" lon="6.35448">
        <ele>1423</ele>
        <time>2000-01-01T02:59:47.000Z</time>
      </trkpt>
      <trkpt lat="46.73779" lon="6.35444">
        <ele>1422.5</ele>
        <time>2000-01-01T02:59:57.000Z</time>
      </trkpt>
      <trkpt lat="46.73792" lon="6.35441">
        <ele>1421.9</ele>
        <time>2000-01-01T03:00:07.000Z</time>
      </trkpt>
      <trkpt lat="46.738" lon="6.35444">
        <ele>1421.7</ele>
        <time>2000-01-01T03:00:17.000Z</time>
      </trkpt>
      <trkpt lat="46.73812" lon="6.35446">
        <ele>1421.4</ele>
        <time>2000-01-01T03:00:27.000Z</time>
      </trkpt>
      <trkpt lat="46.73822" lon="6.35446">
        <ele>1420.8</ele>
        <time>2000-01-01T03:00:37.000Z</time>
      </trkpt>
      <trkpt lat="46.73836" lon="6.35448">
        <ele>1420.2</ele>
        <time>2000-01-01T03:00:47.000Z</time>
      </trkpt>
      <trkpt lat="46.73847" lon="6.3545">
        <ele>1419.6</ele>
        <time>2000-01-01T03:00:57.000Z</time>
      </trkpt>
      <trkpt lat="46.73859" lon="6.35453">
        <ele>1418.4</ele>
        <time>2000-01-01T03:01:07.000Z</time>
      </trkpt>
      <trkpt lat="46.73868" lon="6.35454">
        <ele>1417</ele>
        <time>2000-01-01T03:01:17.000Z</time>
      </trkpt>
      <trkpt lat="46.73879" lon="6.35453">
        <ele>1415</ele>
        <time>2000-01-01T03:01:27.000Z</time>
      </trkpt>
      <trkpt lat="46.7389" lon="6.3545">
        <ele>1412.2</ele>
        <time>2000-01-01T03:01:37.000Z</time>
      </trkpt>
      <trkpt lat="46.73897" lon="6.35447">
        <ele>1410.6</ele>
        <time>2000-01-01T03:01:47.000Z</time>
      </trkpt>
      <trkpt lat="46.73903" lon="6.35446">
        <ele>1409.1</ele>
        <time>2000-01-01T03:01:57.000Z</time>
      </trkpt>
      <trkpt lat="46.73908" lon="6.35448">
        <ele>1407.7</ele>
        <time>2000-01-01T03:02:07.000Z</time>
      </trkpt>
      <trkpt lat="46.73916" lon="6.3546">
        <ele>1405.6</ele>
        <time>2000-01-01T03:02:17.000Z</time>
      </trkpt>
      <trkpt lat="46.73928" lon="6.35475">
        <ele>1404.4</ele>
        <time>2000-01-01T03:02:27.000Z</time>
      </trkpt>
      <trkpt lat="46.73937" lon="6.35488">
        <ele>1404.4</ele>
        <time>2000-01-01T03:02:37.000Z</time>
      </trkpt>
      <trkpt lat="46.73951" lon="6.35502">
        <ele>1404.4</ele>
        <time>2000-01-01T03:02:47.000Z</time>
      </trkpt>
      <trkpt lat="46.73963" lon="6.35515">
        <ele>1400.5</ele>
        <time>2000-01-01T03:02:57.000Z</time>
      </trkpt>
      <trkpt lat="46.73974" lon="6.35528">
        <ele>1398.8</ele>
        <time>2000-01-01T03:03:07.000Z</time>
      </trkpt>
      <trkpt lat="46.73982" lon="6.35535">
        <ele>1397.6</ele>
        <time>2000-01-01T03:03:17.000Z</time>
      </trkpt>
      <trkpt lat="46.73991" lon="6.35541">
        <ele>1395.4</ele>
        <time>2000-01-01T03:03:27.000Z</time>
      </trkpt>
      <trkpt lat="46.74001" lon="6.35542">
        <ele>1397.8</ele>
        <time>2000-01-01T03:03:37.000Z</time>
      </trkpt>
      <trkpt lat="46.74015" lon="6.3554">
        <ele>1401.5</ele>
        <time>2000-01-01T03:03:47.000Z</time>
      </trkpt>
      <trkpt lat="46.74031" lon="6.35538">
        <ele>1403.5</ele>
        <time>2000-01-01T03:03:57.000Z</time>
      </trkpt>
      <trkpt lat="46.74048" lon="6.35536">
        <ele>1404.5</ele>
        <time>2000-01-01T03:04:07.000Z</time>
      </trkpt>
      <trkpt lat="46.74063" lon="6.35536">
        <ele>1404.5</ele>
        <time>2000-01-01T03:04:17.000Z</time>
      </trkpt>
      <trkpt lat="46.74075" lon="6.3554">
        <ele>1404.2</ele>
        <time>2000-01-01T03:04:27.000Z</time>
      </trkpt>
      <trkpt lat="46.74087" lon="6.35545">
        <ele>1403.8</ele>
        <time>2000-01-01T03:04:37.000Z</time>
      </trkpt>
      <trkpt lat="46.74097" lon="6.35547">
        <ele>1403.4</ele>
        <time>2000-01-01T03:04:47.000Z</time>
      </trkpt>
      <trkpt lat="46.74106" lon="6.35548">
        <ele>1403</ele>
        <time>2000-01-01T03:04:57.000Z</time>
      </trkpt>
      <trkpt lat="46.74116" lon="6.35554">
        <ele>1402.6</ele>
        <time>2000-01-01T03:05:07.000Z</time>
      </trkpt>
      <trkpt lat="46.74127" lon="6.3556">
        <ele>1402.3</ele>
        <time>2000-01-01T03:05:17.000Z</time>
      </trkpt>
      <trkpt lat="46.74136" lon="6.35566">
        <ele>1401.6</ele>
        <time>2000-01-01T03:05:27.000Z</time>
      </trkpt>
      <trkpt lat="46.74146" lon="6.35576">
        <ele>1399.5</ele>
        <time>2000-01-01T03:05:37.000Z</time>
      </trkpt>
      <trkpt lat="46.74155" lon="6.35584">
        <ele>1398.2</ele>
        <time>2000-01-01T03:05:47.000Z</time>
      </trkpt>
      <trkpt lat="46.74163" lon="6.35594">
        <ele>1396.6</ele>
        <time>2000-01-01T03:05:57.000Z</time>
      </trkpt>
      <trkpt lat="46.74169" lon="6.35602">
        <ele>1393.5</ele>
        <time>2000-01-01T03:06:07.000Z</time>
      </trkpt>
      <trkpt lat="46.74175" lon="6.35608">
        <ele>1391.4</ele>
        <time>2000-01-01T03:06:17.000Z</time>
      </trkpt>
      <trkpt lat="46.74182" lon="6.35612">
        <ele>1390.6</ele>
        <time>2000-01-01T03:06:27.000Z</time>
      </trkpt>
      <trkpt lat="46.74192" lon="6.35613">
        <ele>1391.7</ele>
        <time>2000-01-01T03:06:37.000Z</time>
      </trkpt>
      <trkpt lat="46.74206" lon="6.35611">
        <ele>1394</ele>
        <time>2000-01-01T03:06:47.000Z</time>
      </trkpt>
      <trkpt lat="46.74219" lon="6.35607">
        <ele>1396</ele>
        <time>2000-01-01T03:06:57.000Z</time>
      </trkpt>
      <trkpt lat="46.74227" lon="6.35604">
        <ele>1396.6</ele>
        <time>2000-01-01T03:07:07.000Z</time>
      </trkpt>
      <trkpt lat="46.74236" lon="6.35604">
        <ele>1396.5</ele>
        <time>2000-01-01T03:07:17.000Z</time>
      </trkpt>
      <trkpt lat="46.74246" lon="6.35605">
        <ele>1396</ele>
        <time>2000-01-01T03:07:27.000Z</time>
      </trkpt>
      <trkpt lat="46.74256" lon="6.35614">
        <ele>1394.3</ele>
        <time>2000-01-01T03:07:37.000Z</time>
      </trkpt>
      <trkpt lat="46.74264" lon="6.35624">
        <ele>1392.8</ele>
        <time>2000-01-01T03:07:47.000Z</time>
      </trkpt>
      <trkpt lat="46.74271" lon="6.35631">
        <ele>1391.6</ele>
        <time>2000-01-01T03:07:57.000Z</time>
      </trkpt>
      <trkpt lat="46.74274" lon="6.35637">
        <ele>1390.6</ele>
        <time>2000-01-01T03:08:07.000Z</time>
      </trkpt>
      <trkpt lat="46.74278" lon="6.3565">
        <ele>1389</ele>
        <time>2000-01-01T03:08:17.000Z</time>
      </trkpt>
      <trkpt lat="46.74282" lon="6.35663">
        <ele>1387.7</ele>
        <time>2000-01-01T03:08:27.000Z</time>
      </trkpt>
      <trkpt lat="46.74287" lon="6.35678">
        <ele>1386.6</ele>
        <time>2000-01-01T03:08:37.000Z</time>
      </trkpt>
      <trkpt lat="46.74294" lon="6.35691">
        <ele>1386.6</ele>
        <time>2000-01-01T03:08:47.000Z</time>
      </trkpt>
      <trkpt lat="46.74302" lon="6.357">
        <ele>1387</ele>
        <time>2000-01-01T03:08:57.000Z</time>
      </trkpt>
      <trkpt lat="46.7431" lon="6.35704">
        <ele>1387.7</ele>
        <time>2000-01-01T03:09:07.000Z</time>
      </trkpt>
      <trkpt lat="46.74317" lon="6.35711">
        <ele>1387.4</ele>
        <time>2000-01-01T03:09:17.000Z</time>
      </trkpt>
      <trkpt lat="46.74324" lon="6.35718">
        <ele>1387.4</ele>
        <time>2000-01-01T03:09:27.000Z</time>
      </trkpt>
      <trkpt lat="46.7433" lon="6.35728">
        <ele>1386.9</ele>
        <time>2000-01-01T03:09:37.000Z</time>
      </trkpt>
      <trkpt lat="46.74337" lon="6.35736">
        <ele>1386.6</ele>
        <time>2000-01-01T03:09:47.000Z</time>
      </trkpt>
      <trkpt lat="46.74344" lon="6.35742">
        <ele>1386.7</ele>
        <time>2000-01-01T03:09:57.000Z</time>
      </trkpt>
      <trkpt lat="46.74348" lon="6.35746">
        <ele>1386.9</ele>
        <time>2000-01-01T03:10:07.000Z</time>
      </trkpt>
      <trkpt lat="46.74356" lon="6.35749">
        <ele>1387.2</ele>
        <time>2000-01-01T03:10:17.000Z</time>
      </trkpt>
      <trkpt lat="46.74364" lon="6.35745">
        <ele>1387.1</ele>
        <time>2000-01-01T03:10:27.000Z</time>
      </trkpt>
      <trkpt lat="46.7437" lon="6.35742">
        <ele>1386.9</ele>
        <time>2000-01-01T03:10:37.000Z</time>
      </trkpt>
      <trkpt lat="46.74377" lon="6.35742">
        <ele>1387</ele>
        <time>2000-01-01T03:10:47.000Z</time>
      </trkpt>
      <trkpt lat="46.74382" lon="6.35749">
        <ele>1387.2</ele>
        <time>2000-01-01T03:10:57.000Z</time>
      </trkpt>
      <trkpt lat="46.74389" lon="6.35758">
        <ele>1387.3</ele>
        <time>2000-01-01T03:11:07.000Z</time>
      </trkpt>
      <trkpt lat="46.74396" lon="6.35766">
        <ele>1387.4</ele>
        <time>2000-01-01T03:11:17.000Z</time>
      </trkpt>
      <trkpt lat="46.74408" lon="6.35773">
        <ele>1388.6</ele>
        <time>2000-01-01T03:11:27.000Z</time>
      </trkpt>
      <trkpt lat="46.74421" lon="6.3578">
        <ele>1389.8</ele>
        <time>2000-01-01T03:11:37.000Z</time>
      </trkpt>
      <trkpt lat="46.74431" lon="6.35786">
        <ele>1390</ele>
        <time>2000-01-01T03:11:47.000Z</time>
      </trkpt>
      <trkpt lat="46.74437" lon="6.35791">
        <ele>1389.6</ele>
        <time>2000-01-01T03:11:57.000Z</time>
      </trkpt>
      <trkpt lat="46.74446" lon="6.35793">
        <ele>1389.3</ele>
        <time>2000-01-01T03:12:07.000Z</time>
      </trkpt>
      <trkpt lat="46.74455" lon="6.35802">
        <ele>1388.5</ele>
        <time>2000-01-01T03:12:17.000Z</time>
      </trkpt>
      <trkpt lat="46.74465" lon="6.35811">
        <ele>1387.9</ele>
        <time>2000-01-01T03:12:27.000Z</time>
      </trkpt>
      <trkpt lat="46.74473" lon="6.35817">
        <ele>1387.2</ele>
        <time>2000-01-01T03:12:37.000Z</time>
      </trkpt>
      <trkpt lat="46.74481" lon="6.35824">
        <ele>1386</ele>
        <time>2000-01-01T03:12:47.000Z</time>
      </trkpt>
      <trkpt lat="46.74486" lon="6.3583">
        <ele>1385.1</ele>
        <time>2000-01-01T03:12:57.000Z</time>
      </trkpt>
      <trkpt lat="46.74491" lon="6.35832">
        <ele>1384.9</ele>
        <time>2000-01-01T03:13:07.000Z</time>
      </trkpt>
      <trkpt lat="46.74496" lon="6.35827">
        <ele>1385.5</ele>
        <time>2000-01-01T03:13:17.000Z</time>
      </trkpt>
      <trkpt lat="46.74501" lon="6.35815">
        <ele>1386.2</ele>
        <time>2000-01-01T03:13:27.000Z</time>
      </trkpt>
      <trkpt lat="46.74506" lon="6.35812">
        <ele>1385.7</ele>
        <time>2000-01-01T03:13:37.000Z</time>
      </trkpt>
      <trkpt lat="46.74513" lon="6.35818">
        <ele>1385.5</ele>
        <time>2000-01-01T03:13:47.000Z</time>
      </trkpt>
      <trkpt lat="46.74517" lon="6.35826">
        <ele>1385.2</ele>
        <time>2000-01-01T03:13:57.000Z</time>
      </trkpt>
      <trkpt lat="46.74526" lon="6.35835">
        <ele>1384.7</ele>
        <time>2000-01-01T03:14:07.000Z</time>
      </trkpt>
      <trkpt lat="46.74534" lon="6.35844">
        <ele>1383.9</ele>
        <time>2000-01-01T03:14:17.000Z</time>
      </trkpt>
      <trkpt lat="46.74544" lon="6.35852">
        <ele>1382.1</ele>
        <time>2000-01-01T03:14:27.000Z</time>
      </trkpt>
      <trkpt lat="46.7455" lon="6.35854">
        <ele>1380.7</ele>
        <time>2000-01-01T03:14:37.000Z</time>
      </trkpt>
      <trkpt lat="46.74558" lon="6.35857">
        <ele>1379</ele>
        <time>2000-01-01T03:14:47.000Z</time>
      </trkpt>
      <trkpt lat="46.74564" lon="6.3586">
        <ele>1377.8</ele>
        <time>2000-01-01T03:14:57.000Z</time>
      </trkpt>
      <trkpt lat="46.74569" lon="6.35869">
        <ele>1376.7</ele>
        <time>2000-01-01T03:15:07.000Z</time>
      </trkpt>
      <trkpt lat="46.74575" lon="6.35885">
        <ele>1374.9</ele>
        <time>2000-01-01T03:15:17.000Z</time>
      </trkpt>
      <trkpt lat="46.74583" lon="6.3589">
        <ele>1373.8</ele>
        <time>2000-01-01T03:15:27.000Z</time>
      </trkpt>
      <trkpt lat="46.74594" lon="6.35891">
        <ele>1373.2</ele>
        <time>2000-01-01T03:15:37.000Z</time>
      </trkpt>
      <trkpt lat="46.74604" lon="6.35885">
        <ele>1373.2</ele>
        <time>2000-01-01T03:15:47.000Z</time>
      </trkpt>
      <trkpt lat="46.74613" lon="6.35879">
        <ele>1372.5</ele>
        <time>2000-01-01T03:15:57.000Z</time>
      </trkpt>
      <trkpt lat="46.74623" lon="6.35873">
        <ele>1371.1</ele>
        <time>2000-01-01T03:16:07.000Z</time>
      </trkpt>
      <trkpt lat="46.74631" lon="6.35868">
        <ele>1369.8</ele>
        <time>2000-01-01T03:16:17.000Z</time>
      </trkpt>
      <trkpt lat="46.74641" lon="6.35871">
        <ele>1368.3</ele>
        <time>2000-01-01T03:16:27.000Z</time>
      </trkpt>
      <trkpt lat="46.74651" lon="6.35874">
        <ele>1366.7</ele>
        <time>2000-01-01T03:16:37.000Z</time>
      </trkpt>
      <trkpt lat="46.74664" lon="6.35877">
        <ele>1364.6</ele>
        <time>2000-01-01T03:16:47.000Z</time>
      </trkpt>
      <trkpt lat="46.74676" lon="6.35879">
        <ele>1362.5</ele>
        <time>2000-01-01T03:16:57.000Z</time>
      </trkpt>
      <trkpt lat="46.74686" lon="6.3588">
        <ele>1360.8</ele>
        <time>2000-01-01T03:17:07.000Z</time>
      </trkpt>
      <trkpt lat="46.74693" lon="6.35874">
        <ele>1359.4</ele>
        <time>2000-01-01T03:17:17.000Z</time>
      </trkpt>
      <trkpt lat="46.747" lon="6.3587">
        <ele>1358.1</ele>
        <time>2000-01-01T03:17:27.000Z</time>
      </trkpt>
      <trkpt lat="46.74709" lon="6.35874">
        <ele>1356.7</ele>
        <time>2000-01-01T03:17:37.000Z</time>
      </trkpt>
      <trkpt lat="46.74718" lon="6.3587">
        <ele>1355.2</ele>
        <time>2000-01-01T03:17:47.000Z</time>
      </trkpt>
      <trkpt lat="46.74723" lon="6.35861">
        <ele>1354.1</ele>
        <time>2000-01-01T03:17:57.000Z</time>
      </trkpt>
      <trkpt lat="46.74728" lon="6.35842">
        <ele>1353.2</ele>
        <time>2000-01-01T03:18:07.000Z</time>
      </trkpt>
      <trkpt lat="46.74735" lon="6.35822">
        <ele>1352.3</ele>
        <time>2000-01-01T03:18:17.000Z</time>
      </trkpt>
      <trkpt lat="46.74742" lon="6.35809">
        <ele>1351.5</ele>
        <time>2000-01-01T03:18:27.000Z</time>
      </trkpt>
      <trkpt lat="46.74749" lon="6.35799">
        <ele>1350.4</ele>
        <time>2000-01-01T03:18:37.000Z</time>
      </trkpt>
      <trkpt lat="46.74758" lon="6.35791">
        <ele>1349.1</ele>
        <time>2000-01-01T03:18:47.000Z</time>
      </trkpt>
      <trkpt lat="46.74767" lon="6.35788">
        <ele>1347.9</ele>
        <time>2000-01-01T03:18:57.000Z</time>
      </trkpt>
      <trkpt lat="46.74775" lon="6.35789">
        <ele>1347</ele>
        <time>2000-01-01T03:19:07.000Z</time>
      </trkpt>
      <trkpt lat="46.74783" lon="6.35787">
        <ele>1346.1</ele>
        <time>2000-01-01T03:19:17.000Z</time>
      </trkpt>
      <trkpt lat="46.74786" lon="6.35781">
        <ele>1345.8</ele>
        <time>2000-01-01T03:19:27.000Z</time>
      </trkpt>
      <trkpt lat="46.74786" lon="6.35773">
        <ele>1345.6</ele>
        <time>2000-01-01T03:19:37.000Z</time>
      </trkpt>
      <trkpt lat="46.74786" lon="6.3575">
        <ele>1345</ele>
        <time>2000-01-01T03:19:47.000Z</time>
      </trkpt>
      <trkpt lat="46.74796" lon="6.35745">
        <ele>1344.7</ele>
        <time>2000-01-01T03:19:57.000Z</time>
      </trkpt>
      <trkpt lat="46.74807" lon="6.3573">
        <ele>1344.4</ele>
        <time>2000-01-01T03:20:07.000Z</time>
      </trkpt>
      <trkpt lat="46.74821" lon="6.35716">
        <ele>1344.6</ele>
        <time>2000-01-01T03:20:17.000Z</time>
      </trkpt>
      <trkpt lat="46.74835" lon="6.35704">
        <ele>1345.7</ele>
        <time>2000-01-01T03:20:27.000Z</time>
      </trkpt>
      <trkpt lat="46.7485" lon="6.35694">
        <ele>1347.3</ele>
        <time>2000-01-01T03:20:37.000Z</time>
      </trkpt>
      <trkpt lat="46.74863" lon="6.35684">
        <ele>1349.2</ele>
        <time>2000-01-01T03:20:47.000Z</time>
      </trkpt>
      <trkpt lat="46.74872" lon="6.35676">
        <ele>1350.6</ele>
        <time>2000-01-01T03:20:57.000Z</time>
      </trkpt>
      <trkpt lat="46.74878" lon="6.35668">
        <ele>1351.7</ele>
        <time>2000-01-01T03:21:07.000Z</time>
      </trkpt>
      <trkpt lat="46.74881" lon="6.35657">
        <ele>1352.9</ele>
        <time>2000-01-01T03:21:17.000Z</time>
      </trkpt>
      <trkpt lat="46.7488" lon="6.35644">
        <ele>1353.3</ele>
        <time>2000-01-01T03:21:27.000Z</time>
      </trkpt>
      <trkpt lat="46.74878" lon="6.35635">
        <ele>1353.5</ele>
        <time>2000-01-01T03:21:37.000Z</time>
      </trkpt>
      <trkpt lat="46.74873" lon="6.35626">
        <ele>1353.4</ele>
        <time>2000-01-01T03:21:47.000Z</time>
      </trkpt>
      <trkpt lat="46.7487" lon="6.35616">
        <ele>1353.3</ele>
        <time>2000-01-01T03:21:57.000Z</time>
      </trkpt>
      <trkpt lat="46.74864" lon="6.35605">
        <ele>1353</ele>
        <time>2000-01-01T03:22:07.000Z</time>
      </trkpt>
      <trkpt lat="46.74861" lon="6.35597">
        <ele>1352.7</ele>
        <time>2000-01-01T03:22:17.000Z</time>
      </trkpt>
      <trkpt lat="46.74855" lon="6.35584">
        <ele>1351.7</ele>
        <time>2000-01-01T03:22:27.000Z</time>
      </trkpt>
      <trkpt lat="46.74851" lon="6.35573">
        <ele>1350.6</ele>
        <time>2000-01-01T03:22:37.000Z</time>
      </trkpt>
      <trkpt lat="46.74847" lon="6.35562">
        <ele>1349.4</ele>
        <time>2000-01-01T03:22:47.000Z</time>
      </trkpt>
      <trkpt lat="46.74844" lon="6.35551">
        <ele>1348.3</ele>
        <time>2000-01-01T03:22:57.000Z</time>
      </trkpt>
      <trkpt lat="46.74842" lon="6.35538">
        <ele>1347.4</ele>
        <time>2000-01-01T03:23:07.000Z</time>
      </trkpt>
      <trkpt lat="46.74841" lon="6.35529">
        <ele>1346.7</ele>
        <time>2000-01-01T03:23:17.000Z</time>
      </trkpt>
      <trkpt lat="46.74839" lon="6.35522">
        <ele>1345.6</ele>
        <time>2000-01-01T03:23:27.000Z</time>
      </trkpt>
      <trkpt lat="46.74833" lon="6.35507">
        <ele>1342.9</ele>
        <time>2000-01-01T03:23:37.000Z</time>
      </trkpt>
      <trkpt lat="46.74833" lon="6.35507">
        <ele>1342.9</ele>
        <time>2000-01-01T03:23:47.000Z</time>
      </trkpt>
      <trkpt lat="46.74828" lon="6.35505">
        <ele>1341.3</ele>
        <time>2000-01-01T03:23:57.000Z</time>
      </trkpt>
      <trkpt lat="46.74822" lon="6.35507">
        <ele>1339.9</ele>
        <time>2000-01-01T03:24:07.000Z</time>
      </trkpt>
      <trkpt lat="46.74812" lon="6.35514">
        <ele>1338.1</ele>
        <time>2000-01-01T03:24:17.000Z</time>
      </trkpt>
      <trkpt lat="46.74801" lon="6.35524">
        <ele>1336.6</ele>
        <time>2000-01-01T03:24:27.000Z</time>
      </trkpt>
      <trkpt lat="46.74787" lon="6.35535">
        <ele>1335.4</ele>
        <time>2000-01-01T03:24:37.000Z</time>
      </trkpt>
      <trkpt lat="46.74774" lon="6.35546">
        <ele>1334.5</ele>
        <time>2000-01-01T03:24:47.000Z</time>
      </trkpt>
      <trkpt lat="46.74764" lon="6.35555">
        <ele>1334.1</ele>
        <time>2000-01-01T03:24:57.000Z</time>
      </trkpt>
      <trkpt lat="46.74756" lon="6.35561">
        <ele>1333.9</ele>
        <time>2000-01-01T03:25:07.000Z</time>
      </trkpt>
      <trkpt lat="46.74748" lon="6.35564">
        <ele>1333.7</ele>
        <time>2000-01-01T03:25:17.000Z</time>
      </trkpt>
      <trkpt lat="46.74742" lon="6.35562">
        <ele>1333</ele>
        <time>2000-01-01T03:25:27.000Z</time>
      </trkpt>
      <trkpt lat="46.74738" lon="6.35558">
        <ele>1332.3</ele>
        <time>2000-01-01T03:25:37.000Z</time>
      </trkpt>
      <trkpt lat="46.74736" lon="6.35552">
        <ele>1331.6</ele>
        <time>2000-01-01T03:25:47.000Z</time>
      </trkpt>
      <trkpt lat="46.74734" lon="6.35544">
        <ele>1330.8</ele>
        <time>2000-01-01T03:25:57.000Z</time>
      </trkpt>
      <trkpt lat="46.74731" lon="6.35534">
        <ele>1329.7</ele>
        <time>2000-01-01T03:26:07.000Z</time>
      </trkpt>
      <trkpt lat="46.74729" lon="6.35525">
        <ele>1328.9</ele>
        <time>2000-01-01T03:26:17.000Z</time>
      </trkpt>
      <trkpt lat="46.74736" lon="6.35531">
        <ele>1329.5</ele>
        <time>2000-01-01T03:26:27.000Z</time>
      </trkpt>
      <trkpt lat="46.74746" lon="6.35529">
        <ele>1330</ele>
        <time>2000-01-01T03:26:37.000Z</time>
      </trkpt>
      <trkpt lat="46.74757" lon="6.35522">
        <ele>1330.6</ele>
        <time>2000-01-01T03:26:47.000Z</time>
      </trkpt>
      <trkpt lat="46.74768" lon="6.35513">
        <ele>1331.5</ele>
        <time>2000-01-01T03:26:57.000Z</time>
      </trkpt>
      <trkpt lat="46.74778" lon="6.35504">
        <ele>1332.2</ele>
        <time>2000-01-01T03:27:07.000Z</time>
      </trkpt>
      <trkpt lat="46.74785" lon="6.35492">
        <ele>1332.5</ele>
        <time>2000-01-01T03:27:17.000Z</time>
      </trkpt>
      <trkpt lat="46.74794" lon="6.35478">
        <ele>1333.4</ele>
        <time>2000-01-01T03:27:27.000Z</time>
      </trkpt>
      <trkpt lat="46.748" lon="6.35464">
        <ele>1334.1</ele>
        <time>2000-01-01T03:27:37.000Z</time>
      </trkpt>
      <trkpt lat="46.74806" lon="6.35449">
        <ele>1335.4</ele>
        <time>2000-01-01T03:27:47.000Z</time>
      </trkpt>
      <trkpt lat="46.74811" lon="6.35432">
        <ele>1336.8</ele>
        <time>2000-01-01T03:27:57.000Z</time>
      </trkpt>
      <trkpt lat="46.74818" lon="6.35409">
        <ele>1339</ele>
        <time>2000-01-01T03:28:07.000Z</time>
      </trkpt>
      <trkpt lat="46.74823" lon="6.35393">
        <ele>1340.7</ele>
        <time>2000-01-01T03:28:17.000Z</time>
      </trkpt>
      <trkpt lat="46.74832" lon="6.35373">
        <ele>1343.6</ele>
        <time>2000-01-01T03:28:27.000Z</time>
      </trkpt>
      <trkpt lat="46.74839" lon="6.35355">
        <ele>1345.9</ele>
        <time>2000-01-01T03:28:37.000Z</time>
      </trkpt>
      <trkpt lat="46.74842" lon="6.35347">
        <ele>1346.9</ele>
        <time>2000-01-01T03:28:47.000Z</time>
      </trkpt>
      <trkpt lat="46.74854" lon="6.35327">
        <ele>1350.3</ele>
        <time>2000-01-01T03:28:57.000Z</time>
      </trkpt>
      <trkpt lat="46.7486" lon="6.35314">
        <ele>1352.1</ele>
        <time>2000-01-01T03:29:07.000Z</time>
      </trkpt>
      <trkpt lat="46.74866" lon="6.35296">
        <ele>1353.5</ele>
        <time>2000-01-01T03:29:17.000Z</time>
      </trkpt>
      <trkpt lat="46.74871" lon="6.35282">
        <ele>1354.7</ele>
        <time>2000-01-01T03:29:27.000Z</time>
      </trkpt>
      <trkpt lat="46.74881" lon="6.35268">
        <ele>1357.9</ele>
        <time>2000-01-01T03:29:37.000Z</time>
      </trkpt>
      <trkpt lat="46.74889" lon="6.35258">
        <ele>1360.5</ele>
        <time>2000-01-01T03:29:47.000Z</time>
      </trkpt>
      <trkpt lat="46.74896" lon="6.35252">
        <ele>1362.9</ele>
        <time>2000-01-01T03:29:57.000Z</time>
      </trkpt>
      <trkpt lat="46.74906" lon="6.3524">
        <ele>1366.5</ele>
        <time>2000-01-01T03:30:07.000Z</time>
      </trkpt>
      <trkpt lat="46.74913" lon="6.35226">
        <ele>1369</ele>
        <time>2000-01-01T03:30:17.000Z</time>
      </trkpt>
      <trkpt lat="46.74922" lon="6.35213">
        <ele>1372</ele>
        <time>2000-01-01T03:30:27.000Z</time>
      </trkpt>
      <trkpt lat="46.74943" lon="6.35176">
        <ele>1376.5</ele>
        <time>2000-01-01T03:30:37.000Z</time>
      </trkpt>
      <trkpt lat="46.74952" lon="6.35161">
        <ele>1377.8</ele>
        <time>2000-01-01T03:30:47.000Z</time>
      </trkpt>
      <trkpt lat="46.74961" lon="6.35149">
        <ele>1378.5</ele>
        <time>2000-01-01T03:30:57.000Z</time>
      </trkpt>
      <trkpt lat="46.74966" lon="6.3514">
        <ele>1378.7</ele>
        <time>2000-01-01T03:31:07.000Z</time>
      </trkpt>
      <trkpt lat="46.74974" lon="6.35127">
        <ele>1379.7</ele>
        <time>2000-01-01T03:31:17.000Z</time>
      </trkpt>
      <trkpt lat="46.7498" lon="6.35118">
        <ele>1380.8</ele>
        <time>2000-01-01T03:31:27.000Z</time>
      </trkpt>
      <trkpt lat="46.74987" lon="6.35113">
        <ele>1382.2</ele>
        <time>2000-01-01T03:31:37.000Z</time>
      </trkpt>
      <trkpt lat="46.74997" lon="6.35116">
        <ele>1384.6</ele>
        <time>2000-01-01T03:31:47.000Z</time>
      </trkpt>
      <trkpt lat="46.75004" lon="6.35128">
        <ele>1386.7</ele>
        <time>2000-01-01T03:31:57.000Z</time>
      </trkpt>
      <trkpt lat="46.75007" lon="6.35139">
        <ele>1387.8</ele>
        <time>2000-01-01T03:32:07.000Z</time>
      </trkpt>
      <trkpt lat="46.75009" lon="6.35153">
        <ele>1388.9</ele>
        <time>2000-01-01T03:32:17.000Z</time>
      </trkpt>
      <trkpt lat="46.75011" lon="6.35178">
        <ele>1390.7</ele>
        <time>2000-01-01T03:32:27.000Z</time>
      </trkpt>
      <trkpt lat="46.75013" lon="6.35189">
        <ele>1391.9</ele>
        <time>2000-01-01T03:32:37.000Z</time>
      </trkpt>
      <trkpt lat="46.75018" lon="6.35217">
        <ele>1395.3</ele>
        <time>2000-01-01T03:32:47.000Z</time>
      </trkpt>
      <trkpt lat="46.75024" lon="6.35238">
        <ele>1397.2</ele>
        <time>2000-01-01T03:32:57.000Z</time>
      </trkpt>
      <trkpt lat="46.75033" lon="6.3526">
        <ele>1399</ele>
        <time>2000-01-01T03:33:07.000Z</time>
      </trkpt>
      <trkpt lat="46.75036" lon="6.35271">
        <ele>1399.6</ele>
        <time>2000-01-01T03:33:17.000Z</time>
      </trkpt>
      <trkpt lat="46.75038" lon="6.35283">
        <ele>1400</ele>
        <time>2000-01-01T03:33:27.000Z</time>
      </trkpt>
      <trkpt lat="46.75049" lon="6.35309">
        <ele>1402.9</ele>
        <time>2000-01-01T03:33:37.000Z</time>
      </trkpt>
      <trkpt lat="46.75057" lon="6.35333">
        <ele>1404.1</ele>
        <time>2000-01-01T03:33:47.000Z</time>
      </trkpt>
      <trkpt lat="46.75066" lon="6.35358">
        <ele>1406.3</ele>
        <time>2000-01-01T03:33:57.000Z</time>
      </trkpt>
      <trkpt lat="46.75072" lon="6.35381">
        <ele>1408</ele>
        <time>2000-01-01T03:34:07.000Z</time>
      </trkpt>
      <trkpt lat="46.75078" lon="6.354">
        <ele>1408.8</ele>
        <time>2000-01-01T03:34:17.000Z</time>
      </trkpt>
      <trkpt lat="46.75079" lon="6.35406">
        <ele>1408.8</ele>
        <time>2000-01-01T03:34:27.000Z</time>
      </trkpt>
      <trkpt lat="46.75078" lon="6.35415">
        <ele>1407.6</ele>
        <time>2000-01-01T03:34:37.000Z</time>
      </trkpt>
      <trkpt lat="46.75069" lon="6.35423">
        <ele>1404.8</ele>
        <time>2000-01-01T03:34:47.000Z</time>
      </trkpt>
      <trkpt lat="46.75059" lon="6.35437">
        <ele>1401.5</ele>
        <time>2000-01-01T03:34:57.000Z</time>
      </trkpt>
      <trkpt lat="46.75049" lon="6.35449">
        <ele>1398.3</ele>
        <time>2000-01-01T03:35:07.000Z</time>
      </trkpt>
      <trkpt lat="46.75043" lon="6.35456">
        <ele>1396.5</ele>
        <time>2000-01-01T03:35:17.000Z</time>
      </trkpt>
      <trkpt lat="46.75041" lon="6.35464">
        <ele>1395.4</ele>
        <time>2000-01-01T03:35:27.000Z</time>
      </trkpt>
      <trkpt lat="46.75035" lon="6.35474">
        <ele>1393.5</ele>
        <time>2000-01-01T03:35:37.000Z</time>
      </trkpt>
      <trkpt lat="46.75033" lon="6.35495">
        <ele>1391.3</ele>
        <time>2000-01-01T03:35:47.000Z</time>
      </trkpt>
      <trkpt lat="46.7503" lon="6.35524">
        <ele>1388.3</ele>
        <time>2000-01-01T03:35:57.000Z</time>
      </trkpt>
      <trkpt lat="46.75031" lon="6.35543">
        <ele>1386.1</ele>
        <time>2000-01-01T03:36:07.000Z</time>
      </trkpt>
      <trkpt lat="46.7503" lon="6.35565">
        <ele>1383</ele>
        <time>2000-01-01T03:36:17.000Z</time>
      </trkpt>
      <trkpt lat="46.7503" lon="6.35578">
        <ele>1380.3</ele>
        <time>2000-01-01T03:36:27.000Z</time>
      </trkpt>
      <trkpt lat="46.75031" lon="6.35594">
        <ele>1377.3</ele>
        <time>2000-01-01T03:36:37.000Z</time>
      </trkpt>
      <trkpt lat="46.75034" lon="6.35619">
        <ele>1374</ele>
        <time>2000-01-01T03:36:47.000Z</time>
      </trkpt>
      <trkpt lat="46.75034" lon="6.35635">
        <ele>1372.3</ele>
        <time>2000-01-01T03:36:57.000Z</time>
      </trkpt>
      <trkpt lat="46.75035" lon="6.35658">
        <ele>1370.8</ele>
        <time>2000-01-01T03:37:07.000Z</time>
      </trkpt>
      <trkpt lat="46.7504" lon="6.35681">
        <ele>1368.5</ele>
        <time>2000-01-01T03:37:17.000Z</time>
      </trkpt>
      <trkpt lat="46.75041" lon="6.35696">
        <ele>1366.5</ele>
        <time>2000-01-01T03:37:27.000Z</time>
      </trkpt>
      <trkpt lat="46.75043" lon="6.35717">
        <ele>1363.7</ele>
        <time>2000-01-01T03:37:37.000Z</time>
      </trkpt>
      <trkpt lat="46.75043" lon="6.35737">
        <ele>1360.6</ele>
        <time>2000-01-01T03:37:47.000Z</time>
      </trkpt>
      <trkpt lat="46.75041" lon="6.35758">
        <ele>1357.3</ele>
        <time>2000-01-01T03:37:57.000Z</time>
      </trkpt>
      <trkpt lat="46.75038" lon="6.35781">
        <ele>1354.1</ele>
        <time>2000-01-01T03:38:07.000Z</time>
      </trkpt>
      <trkpt lat="46.75035" lon="6.35799">
        <ele>1351.4</ele>
        <time>2000-01-01T03:38:17.000Z</time>
      </trkpt>
      <trkpt lat="46.75032" lon="6.35813">
        <ele>1349.2</ele>
        <time>2000-01-01T03:38:27.000Z</time>
      </trkpt>
      <trkpt lat="46.75028" lon="6.35829">
        <ele>1346.6</ele>
        <time>2000-01-01T03:38:37.000Z</time>
      </trkpt>
      <trkpt lat="46.75017" lon="6.35858">
        <ele>1340.7</ele>
        <time>2000-01-01T03:38:47.000Z</time>
      </trkpt>
      <trkpt lat="46.75004" lon="6.35883">
        <ele>1334</ele>
        <time>2000-01-01T03:38:57.000Z</time>
      </trkpt>
      <trkpt lat="46.74991" lon="6.35903">
        <ele>1327.4</ele>
        <time>2000-01-01T03:39:07.000Z</time>
      </trkpt>
      <trkpt lat="46.7498" lon="6.35914">
        <ele>1323.8</ele>
        <time>2000-01-01T03:39:17.000Z</time>
      </trkpt>
      <trkpt lat="46.74967" lon="6.35922">
        <ele>1321.4</ele>
        <time>2000-01-01T03:39:27.000Z</time>
      </trkpt>
      <trkpt lat="46.7495" lon="6.35926">
        <ele>1320</ele>
        <time>2000-01-01T03:39:37.000Z</time>
      </trkpt>
      <trkpt lat="46.74935" lon="6.35928">
        <ele>1319.2</ele>
        <time>2000-01-01T03:39:47.000Z</time>
      </trkpt>
      <trkpt lat="46.74921" lon="6.3593">
        <ele>1318.1</ele>
        <time>2000-01-01T03:39:57.000Z</time>
      </trkpt>
      <trkpt lat="46.74904" lon="6.35939">
        <ele>1314.9</ele>
        <time>2000-01-01T03:40:07.000Z</time>
      </trkpt>
      <trkpt lat="46.74893" lon="6.35948">
        <ele>1312.5</ele>
        <time>2000-01-01T03:40:17.000Z</time>
      </trkpt>
      <trkpt lat="46.74873" lon="6.35971">
        <ele>1310.5</ele>
        <time>2000-01-01T03:40:27.000Z</time>
      </trkpt>
      <trkpt lat="46.74858" lon="6.35986">
        <ele>1311.6</ele>
        <time>2000-01-01T03:40:37.000Z</time>
      </trkpt>
      <trkpt lat="46.74842" lon="6.36005">
        <ele>1312.8</ele>
        <time>2000-01-01T03:40:47.000Z</time>
      </trkpt>
      <trkpt lat="46.74825" lon="6.36022">
        <ele>1315.2</ele>
        <time>2000-01-01T03:40:57.000Z</time>
      </trkpt>
      <trkpt lat="46.74812" lon="6.36042">
        <ele>1317</ele>
        <time>2000-01-01T03:41:07.000Z</time>
      </trkpt>
      <trkpt lat="46.74802" lon="6.36061">
        <ele>1316.6</ele>
        <time>2000-01-01T03:41:17.000Z</time>
      </trkpt>
      <trkpt lat="46.74798" lon="6.36083">
        <ele>1309.8</ele>
        <time>2000-01-01T03:41:27.000Z</time>
      </trkpt>
      <trkpt lat="46.74805" lon="6.36095">
        <ele>1300.4</ele>
        <time>2000-01-01T03:41:37.000Z</time>
      </trkpt>
      <trkpt lat="46.74817" lon="6.36096">
        <ele>1293.8</ele>
        <time>2000-01-01T03:41:47.000Z</time>
      </trkpt>
      <trkpt lat="46.74829" lon="6.36097">
        <ele>1287.9</ele>
        <time>2000-01-01T03:41:57.000Z</time>
      </trkpt>
      <trkpt lat="46.74844" lon="6.36097">
        <ele>1282.1</ele>
        <time>2000-01-01T03:42:07.000Z</time>
      </trkpt>
      <trkpt lat="46.74862" lon="6.36097">
        <ele>1276.9</ele>
        <time>2000-01-01T03:42:17.000Z</time>
      </trkpt>
      <trkpt lat="46.74876" lon="6.36099">
        <ele>1273.2</ele>
        <time>2000-01-01T03:42:27.000Z</time>
      </trkpt>
      <trkpt lat="46.74891" lon="6.36098">
        <ele>1270.8</ele>
        <time>2000-01-01T03:42:37.000Z</time>
      </trkpt>
      <trkpt lat="46.74925" lon="6.3611">
        <ele>1262.7</ele>
        <time>2000-01-01T03:42:47.000Z</time>
      </trkpt>
      <trkpt lat="46.74957" lon="6.36122">
        <ele>1254</ele>
        <time>2000-01-01T03:42:57.000Z</time>
      </trkpt>
      <trkpt lat="46.7499" lon="6.36136">
        <ele>1244.9</ele>
        <time>2000-01-01T03:43:07.000Z</time>
      </trkpt>
      <trkpt lat="46.75007" lon="6.36152">
        <ele>1238.1</ele>
        <time>2000-01-01T03:43:17.000Z</time>
      </trkpt>
      <trkpt lat="46.75031" lon="6.36165">
        <ele>1233.1</ele>
        <time>2000-01-01T03:43:27.000Z</time>
      </trkpt>
      <trkpt lat="46.75049" lon="6.36199">
        <ele>1226.1</ele>
        <time>2000-01-01T03:43:37.000Z</time>
      </trkpt>
      <trkpt lat="46.75063" lon="6.36243">
        <ele>1221</ele>
        <time>2000-01-01T03:43:47.000Z</time>
      </trkpt>
      <trkpt lat="46.7508" lon="6.36291">
        <ele>1214.3</ele>
        <time>2000-01-01T03:43:57.000Z</time>
      </trkpt>
      <trkpt lat="46.75103" lon="6.36326">
        <ele>1208.1</ele>
        <time>2000-01-01T03:44:07.000Z</time>
      </trkpt>
      <trkpt lat="46.75122" lon="6.3635">
        <ele>1201.5</ele>
        <time>2000-01-01T03:44:17.000Z</time>
      </trkpt>
      <trkpt lat="46.7514" lon="6.36373">
        <ele>1193.1</ele>
        <time>2000-01-01T03:44:27.000Z</time>
      </trkpt>
      <trkpt lat="46.75159" lon="6.36397">
        <ele>1185.5</ele>
        <time>2000-01-01T03:44:37.000Z</time>
      </trkpt>
      <trkpt lat="46.75177" lon="6.36418">
        <ele>1181.2</ele>
        <time>2000-01-01T03:44:47.000Z</time>
      </trkpt>
      <trkpt lat="46.75196" lon="6.36441">
        <ele>1178.3</ele>
        <time>2000-01-01T03:44:57.000Z</time>
      </trkpt>
      <trkpt lat="46.75213" lon="6.36468">
        <ele>1174.3</ele>
        <time>2000-01-01T03:45:07.000Z</time>
      </trkpt>
      <trkpt lat="46.75231" lon="6.36497">
        <ele>1168.7</ele>
        <time>2000-01-01T03:45:17.000Z</time>
      </trkpt>
      <trkpt lat="46.75242" lon="6.36513">
        <ele>1166.6</ele>
        <time>2000-01-01T03:45:27.000Z</time>
      </trkpt>
      <trkpt lat="46.75253" lon="6.36531">
        <ele>1164.6</ele>
        <time>2000-01-01T03:45:37.000Z</time>
      </trkpt>
      <trkpt lat="46.75259" lon="6.3655">
        <ele>1161.2</ele>
        <time>2000-01-01T03:45:47.000Z</time>
      </trkpt>
      <trkpt lat="46.75257" lon="6.36579">
        <ele>1154.3</ele>
        <time>2000-01-01T03:45:57.000Z</time>
      </trkpt>
      <trkpt lat="46.75244" lon="6.36613">
        <ele>1148.6</ele>
        <time>2000-01-01T03:46:07.000Z</time>
      </trkpt>
      <trkpt lat="46.7523" lon="6.36636">
        <ele>1144.6</ele>
        <time>2000-01-01T03:46:17.000Z</time>
      </trkpt>
      <trkpt lat="46.75213" lon="6.36655">
        <ele>1141.3</ele>
        <time>2000-01-01T03:46:27.000Z</time>
      </trkpt>
      <trkpt lat="46.75204" lon="6.36686">
        <ele>1135.7</ele>
        <time>2000-01-01T03:46:37.000Z</time>
      </trkpt>
      <trkpt lat="46.75198" lon="6.36731">
        <ele>1127.3</ele>
        <time>2000-01-01T03:46:47.000Z</time>
      </trkpt>
      <trkpt lat="46.75192" lon="6.36772">
        <ele>1119.1</ele>
        <time>2000-01-01T03:46:57.000Z</time>
      </trkpt>
      <trkpt lat="46.75189" lon="6.36811">
        <ele>1112.4</ele>
        <time>2000-01-01T03:47:07.000Z</time>
      </trkpt>
      <trkpt lat="46.75217" lon="6.3683">
        <ele>1111.8</ele>
        <time>2000-01-01T03:47:17.000Z</time>
      </trkpt>
      <trkpt lat="46.75234" lon="6.36853">
        <ele>1109.5</ele>
        <time>2000-01-01T03:47:27.000Z</time>
      </trkpt>
      <trkpt lat="46.75251" lon="6.36875">
        <ele>1106.3</ele>
        <time>2000-01-01T03:47:37.000Z</time>
      </trkpt>
      <trkpt lat="46.75277" lon="6.36892">
        <ele>1103.8</ele>
        <time>2000-01-01T03:47:47.000Z</time>
      </trkpt>
      <trkpt lat="46.75299" lon="6.36909">
        <ele>1100.7</ele>
        <time>2000-01-01T03:47:57.000Z</time>
      </trkpt>
      <trkpt lat="46.75326" lon="6.36918">
        <ele>1100.3</ele>
        <time>2000-01-01T03:48:07.000Z</time>
      </trkpt>
      <trkpt lat="46.75354" lon="6.36922">
        <ele>1099.3</ele>
        <time>2000-01-01T03:48:17.000Z</time>
      </trkpt>
      <trkpt lat="46.75367" lon="6.36925">
        <ele>1097.8</ele>
        <time>2000-01-01T03:48:27.000Z</time>
      </trkpt>
      <trkpt lat="46.75389" lon="6.36944">
        <ele>1089.8</ele>
        <time>2000-01-01T03:48:37.000Z</time>
      </trkpt>
      <trkpt lat="46.75418" lon="6.36941">
        <ele>1089.4</ele>
        <time>2000-01-01T03:48:47.000Z</time>
      </trkpt>
      <trkpt lat="46.75439" lon="6.36951">
        <ele>1085.8</ele>
        <time>2000-01-01T03:48:57.000Z</time>
      </trkpt>
      <trkpt lat="46.75465" lon="6.36961">
        <ele>1084</ele>
        <time>2000-01-01T03:49:07.000Z</time>
      </trkpt>
      <trkpt lat="46.75488" lon="6.36965">
        <ele>1083.3</ele>
        <time>2000-01-01T03:49:17.000Z</time>
      </trkpt>
      <trkpt lat="46.75512" lon="6.36972">
        <ele>1081.9</ele>
        <time>2000-01-01T03:49:27.000Z</time>
      </trkpt>
      <trkpt lat="46.75536" lon="6.36974">
        <ele>1082.3</ele>
        <time>2000-01-01T03:49:37.000Z</time>
      </trkpt>
      <trkpt lat="46.75554" lon="6.36983">
        <ele>1081.5</ele>
        <time>2000-01-01T03:49:47.000Z</time>
      </trkpt>
      <trkpt lat="46.75574" lon="6.36993">
        <ele>1081.1</ele>
        <time>2000-01-01T03:49:57.000Z</time>
      </trkpt>
      <trkpt lat="46.75597" lon="6.36998">
        <ele>1081.6</ele>
        <time>2000-01-01T03:50:07.000Z</time>
      </trkpt>
      <trkpt lat="46.75619" lon="6.37007">
        <ele>1079.4</ele>
        <time>2000-01-01T03:50:17.000Z</time>
      </trkpt>
      <trkpt lat="46.75633" lon="6.37009">
        <ele>1078.1</ele>
        <time>2000-01-01T03:50:27.000Z</time>
      </trkpt>
      <trkpt lat="46.75655" lon="6.37019">
        <ele>1075.3</ele>
        <time>2000-01-01T03:50:37.000Z</time>
      </trkpt>
      <trkpt lat="46.75669" lon="6.37026">
        <ele>1074.2</ele>
        <time>2000-01-01T03:50:47.000Z</time>
      </trkpt>
      <trkpt lat="46.75686" lon="6.3704">
        <ele>1071.5</ele>
        <time>2000-01-01T03:50:57.000Z</time>
      </trkpt>
      <trkpt lat="46.75705" lon="6.37051">
        <ele>1067.9</ele>
        <time>2000-01-01T03:51:07.000Z</time>
      </trkpt>
      <trkpt lat="46.7572" lon="6.37056">
        <ele>1065.5</ele>
        <time>2000-01-01T03:51:17.000Z</time>
      </trkpt>
      <trkpt lat="46.75734" lon="6.37069">
        <ele>1059.2</ele>
        <time>2000-01-01T03:51:27.000Z</time>
      </trkpt>
      <trkpt lat="46.75755" lon="6.37083">
        <ele>1052.1</ele>
        <time>2000-01-01T03:51:37.000Z</time>
      </trkpt>
      <trkpt lat="46.75771" lon="6.37087">
        <ele>1050.2</ele>
        <time>2000-01-01T03:51:47.000Z</time>
      </trkpt>
      <trkpt lat="46.75789" lon="6.37084">
        <ele>1049.8</ele>
        <time>2000-01-01T03:51:57.000Z</time>
      </trkpt>
      <trkpt lat="46.75811" lon="6.3708">
        <ele>1049</ele>
        <time>2000-01-01T03:52:07.000Z</time>
      </trkpt>
      <trkpt lat="46.75812" lon="6.37046">
        <ele>1056.8</ele>
        <time>2000-01-01T03:52:17.000Z</time>
      </trkpt>
      <trkpt lat="46.75813" lon="6.37012">
        <ele>1062.4</ele>
        <time>2000-01-01T03:52:27.000Z</time>
      </trkpt>
      <trkpt lat="46.75814" lon="6.36968">
        <ele>1064.9</ele>
        <time>2000-01-01T03:52:37.000Z</time>
      </trkpt>
      <trkpt lat="46.75814" lon="6.36927">
        <ele>1067.3</ele>
        <time>2000-01-01T03:52:47.000Z</time>
      </trkpt>
      <trkpt lat="46.75818" lon="6.36907">
        <ele>1067.9</ele>
        <time>2000-01-01T03:52:57.000Z</time>
      </trkpt>
      <trkpt lat="46.7583" lon="6.36874">
        <ele>1070.8</ele>
        <time>2000-01-01T03:53:07.000Z</time>
      </trkpt>
      <trkpt lat="46.75849" lon="6.36842">
        <ele>1076.6</ele>
        <time>2000-01-01T03:53:17.000Z</time>
      </trkpt>
      <trkpt lat="46.75868" lon="6.36819">
        <ele>1082.9</ele>
        <time>2000-01-01T03:53:27.000Z</time>
      </trkpt>
      <trkpt lat="46.75891" lon="6.3681">
        <ele>1088.9</ele>
        <time>2000-01-01T03:53:37.000Z</time>
      </trkpt>
      <trkpt lat="46.7591" lon="6.36808">
        <ele>1093</ele>
        <time>2000-01-01T03:53:47.000Z</time>
      </trkpt>
      <trkpt lat="46.75931" lon="6.36814">
        <ele>1097.2</ele>
        <time>2000-01-01T03:53:57.000Z</time>
      </trkpt>
      <trkpt lat="46.75949" lon="6.36821">
        <ele>1101.5</ele>
        <time>2000-01-01T03:54:07.000Z</time>
      </trkpt>
      <trkpt lat="46.75963" lon="6.36832">
        <ele>1104.4</ele>
        <time>2000-01-01T03:54:17.000Z</time>
      </trkpt>
      <trkpt lat="46.7598" lon="6.36832">
        <ele>1108.6</ele>
        <time>2000-01-01T03:54:27.000Z</time>
      </trkpt>
      <trkpt lat="46.76003" lon="6.36824">
        <ele>1114.6</ele>
        <time>2000-01-01T03:54:37.000Z</time>
      </trkpt>
      <trkpt lat="46.76023" lon="6.36822">
        <ele>1118.5</ele>
        <time>2000-01-01T03:54:47.000Z</time>
      </trkpt>
      <trkpt lat="46.76038" lon="6.36813">
        <ele>1122.1</ele>
        <time>2000-01-01T03:54:57.000Z</time>
      </trkpt>
      <trkpt lat="46.76052" lon="6.36807">
        <ele>1124.3</ele>
        <time>2000-01-01T03:55:07.000Z</time>
      </trkpt>
      <trkpt lat="46.76062" lon="6.36802">
        <ele>1125.7</ele>
        <time>2000-01-01T03:55:17.000Z</time>
      </trkpt>
      <trkpt lat="46.76076" lon="6.36793">
        <ele>1127.7</ele>
        <time>2000-01-01T03:55:27.000Z</time>
      </trkpt>
      <trkpt lat="46.76089" lon="6.36828">
        <ele>1123.9</ele>
        <time>2000-01-01T03:55:37.000Z</time>
      </trkpt>
      <trkpt lat="46.76108" lon="6.36868">
        <ele>1123.9</ele>
        <time>2000-01-01T03:55:47.000Z</time>
      </trkpt>
      <trkpt lat="46.7613" lon="6.36894">
        <ele>1124.5</ele>
        <time>2000-01-01T03:55:57.000Z</time>
      </trkpt>
      <trkpt lat="46.76157" lon="6.3692">
        <ele>1123.7</ele>
        <time>2000-01-01T03:56:07.000Z</time>
      </trkpt>
      <trkpt lat="46.7618" lon="6.36931">
        <ele>1124.2</ele>
        <time>2000-01-01T03:56:17.000Z</time>
      </trkpt>
      <trkpt lat="46.76206" lon="6.36943">
        <ele>1125.9</ele>
        <time>2000-01-01T03:56:27.000Z</time>
      </trkpt>
      <trkpt lat="46.76233" lon="6.36959">
        <ele>1125.6</ele>
        <time>2000-01-01T03:56:37.000Z</time>
      </trkpt>
      <trkpt lat="46.76253" lon="6.36966">
        <ele>1125.8</ele>
        <time>2000-01-01T03:56:47.000Z</time>
      </trkpt>
      <trkpt lat="46.7628" lon="6.36984">
        <ele>1125.2</ele>
        <time>2000-01-01T03:56:57.000Z</time>
      </trkpt>
      <trkpt lat="46.76305" lon="6.36985">
        <ele>1124.8</ele>
        <time>2000-01-01T03:57:07.000Z</time>
      </trkpt>
      <trkpt lat="46.76341" lon="6.3699">
        <ele>1120.2</ele>
        <time>2000-01-01T03:57:17.000Z</time>
      </trkpt>
      <trkpt lat="46.76366" lon="6.36998">
        <ele>1115.7</ele>
        <time>2000-01-01T03:57:27.000Z</time>
      </trkpt>
      <trkpt lat="46.76387" lon="6.37006">
        <ele>1112.6</ele>
        <time>2000-01-01T03:57:37.000Z</time>
      </trkpt>
      <trkpt lat="46.76406" lon="6.37024">
        <ele>1108.5</ele>
        <time>2000-01-01T03:57:47.000Z</time>
      </trkpt>
      <trkpt lat="46.76427" lon="6.37053">
        <ele>1102.7</ele>
        <time>2000-01-01T03:57:57.000Z</time>
      </trkpt>
      <trkpt lat="46.76441" lon="6.37071">
        <ele>1098.6</ele>
        <time>2000-01-01T03:58:07.000Z</time>
      </trkpt>
      <trkpt lat="46.76459" lon="6.37098">
        <ele>1094.5</ele>
        <time>2000-01-01T03:58:17.000Z</time>
      </trkpt>
      <trkpt lat="46.76464" lon="6.37078">
        <ele>1096.3</ele>
        <time>2000-01-01T03:58:27.000Z</time>
      </trkpt>
      <trkpt lat="46.76461" lon="6.37046">
        <ele>1099.4</ele>
        <time>2000-01-01T03:58:37.000Z</time>
      </trkpt>
      <trkpt lat="46.76456" lon="6.3701">
        <ele>1103.5</ele>
        <time>2000-01-01T03:58:47.000Z</time>
      </trkpt>
      <trkpt lat="46.76446" lon="6.3698">
        <ele>1105.7</ele>
        <time>2000-01-01T03:58:57.000Z</time>
      </trkpt>
      <trkpt lat="46.7643" lon="6.36928">
        <ele>1105.7</ele>
        <time>2000-01-01T03:59:07.000Z</time>
      </trkpt>
      <trkpt lat="46.7642" lon="6.36899">
        <ele>1106.1</ele>
        <time>2000-01-01T03:59:17.000Z</time>
      </trkpt>
      <trkpt lat="46.76405" lon="6.36836">
        <ele>1105.3</ele>
        <time>2000-01-01T03:59:27.000Z</time>
      </trkpt>
      <trkpt lat="46.7639" lon="6.36792">
        <ele>1104</ele>
        <time>2000-01-01T03:59:37.000Z</time>
      </trkpt>
      <trkpt lat="46.76386" lon="6.36737">
        <ele>1103.9</ele>
        <time>2000-01-01T03:59:47.000Z</time>
      </trkpt>
      <trkpt lat="46.76385" lon="6.36696">
        <ele>1103.7</ele>
        <time>2000-01-01T03:59:57.000Z</time>
      </trkpt>
      <trkpt lat="46.76394" lon="6.36662">
        <ele>1103</ele>
        <time>2000-01-01T04:00:07.000Z</time>
      </trkpt>
      <trkpt lat="46.76405" lon="6.36621">
        <ele>1103.1</ele>
        <time>2000-01-01T04:00:17.000Z</time>
      </trkpt>
      <trkpt lat="46.76429" lon="6.36575">
        <ele>1101.7</ele>
        <time>2000-01-01T04:00:27.000Z</time>
      </trkpt>
      <trkpt lat="46.76441" lon="6.36547">
        <ele>1100</ele>
        <time>2000-01-01T04:00:37.000Z</time>
      </trkpt>
      <trkpt lat="46.76452" lon="6.36497">
        <ele>1097.4</ele>
        <time>2000-01-01T04:00:47.000Z</time>
      </trkpt>
      <trkpt lat="46.76455" lon="6.36473">
        <ele>1097.5</ele>
        <time>2000-01-01T04:00:57.000Z</time>
      </trkpt>
      <trkpt lat="46.76457" lon="6.36461">
        <ele>1098.3</ele>
        <time>2000-01-01T04:01:07.000Z</time>
      </trkpt>
      <trkpt lat="46.76459" lon="6.36444">
        <ele>1099.3</ele>
        <time>2000-01-01T04:01:17.000Z</time>
      </trkpt>
      <trkpt lat="46.76456" lon="6.36426">
        <ele>1100.2</ele>
        <time>2000-01-01T04:01:27.000Z</time>
      </trkpt>
      <trkpt lat="46.76454" lon="6.36403">
        <ele>1101.8</ele>
        <time>2000-01-01T04:01:37.000Z</time>
      </trkpt>
      <trkpt lat="46.76451" lon="6.36384">
        <ele>1103.7</ele>
        <time>2000-01-01T04:01:47.000Z</time>
      </trkpt>
      <trkpt lat="46.76473" lon="6.36354">
        <ele>1100.9</ele>
        <time>2000-01-01T04:01:57.000Z</time>
      </trkpt>
      <trkpt lat="46.76488" lon="6.36323">
        <ele>1096.3</ele>
        <time>2000-01-01T04:02:07.000Z</time>
      </trkpt>
      <trkpt lat="46.7651" lon="6.36291">
        <ele>1089.9</ele>
        <time>2000-01-01T04:02:17.000Z</time>
      </trkpt>
      <trkpt lat="46.76532" lon="6.36263">
        <ele>1082.5</ele>
        <time>2000-01-01T04:02:27.000Z</time>
      </trkpt>
      <trkpt lat="46.76554" lon="6.36235">
        <ele>1074.3</ele>
        <time>2000-01-01T04:02:37.000Z</time>
      </trkpt>
      <trkpt lat="46.76576" lon="6.36212">
        <ele>1067.2</ele>
        <time>2000-01-01T04:02:47.000Z</time>
      </trkpt>
      <trkpt lat="46.76588" lon="6.36188">
        <ele>1063</ele>
        <time>2000-01-01T04:02:57.000Z</time>
      </trkpt>
      <trkpt lat="46.76601" lon="6.36138">
        <ele>1054.3</ele>
        <time>2000-01-01T04:03:07.000Z</time>
      </trkpt>
      <trkpt lat="46.76616" lon="6.36088">
        <ele>1048.3</ele>
        <time>2000-01-01T04:03:17.000Z</time>
      </trkpt>
      <trkpt lat="46.76617" lon="6.36039">
        <ele>1045.7</ele>
        <time>2000-01-01T04:03:27.000Z</time>
      </trkpt>
      <trkpt lat="46.76617" lon="6.36012">
        <ele>1045.4</ele>
        <time>2000-01-01T04:03:37.000Z</time>
      </trkpt>
      <trkpt lat="46.76624" lon="6.35992">
        <ele>1042.6</ele>
        <time>2000-01-01T04:03:47.000Z</time>
      </trkpt>
      <trkpt lat="46.76654" lon="6.35976">
        <ele>1034.9</ele>
        <time>2000-01-01T04:03:57.000Z</time>
      </trkpt>
      <trkpt lat="46.76678" lon="6.35958">
        <ele>1030.2</ele>
        <time>2000-01-01T04:04:07.000Z</time>
      </trkpt>
      <trkpt lat="46.76702" lon="6.35935">
        <ele>1027</ele>
        <time>2000-01-01T04:04:17.000Z</time>
      </trkpt>
      <trkpt lat="46.76723" lon="6.35913">
        <ele>1025.1</ele>
        <time>2000-01-01T04:04:27.000Z</time>
      </trkpt>
      <trkpt lat="46.76739" lon="6.35896">
        <ele>1023.5</ele>
        <time>2000-01-01T04:04:37.000Z</time>
      </trkpt>
      <trkpt lat="46.76752" lon="6.35879">
        <ele>1022.3</ele>
        <time>2000-01-01T04:04:47.000Z</time>
      </trkpt>
      <trkpt lat="46.76757" lon="6.35853">
        <ele>1020.8</ele>
        <time>2000-01-01T04:04:57.000Z</time>
      </trkpt>
      <trkpt lat="46.76764" lon="6.35817">
        <ele>1018.3</ele>
        <time>2000-01-01T04:05:07.000Z</time>
      </trkpt>
      <trkpt lat="46.76773" lon="6.35781">
        <ele>1015.2</ele>
        <time>2000-01-01T04:05:17.000Z</time>
      </trkpt>
      <trkpt lat="46.76785" lon="6.35749">
        <ele>1012.8</ele>
        <time>2000-01-01T04:05:27.000Z</time>
      </trkpt>
      <trkpt lat="46.76793" lon="6.35745">
        <ele>1012.2</ele>
        <time>2000-01-01T04:05:37.000Z</time>
      </trkpt>
    </trkseg>
  </trk>
</gpx>